FJI810 NFFN-KLAX
Flight info
| Callsign | FJI810 |
|---|---|
| Flight time | N/A |
| Altitude | 37000 |
| Route | CHARLI BIDNA DCT BONLO DCT BAXIL DCT GOMIK B581 WOSLU/N0489F390 B581 BALKS/N0481F410 B581 FICKY GOATZ2 |
| Aircraft | A359/H-SDE2E3GHIJ3J4J5LM1ORWXY/LB1D1 |
Departure
| Time | 2026-05-08 10:16 |
|---|---|
| Airport | Nadi International Airport (NFFN) |
Arrival
| Time | N/A |
|---|---|
| Airport | Los Angeles International Airport (KLAX) |
| Time | Latitude | Longitude | Altitude | Speed | Heading |
|---|---|---|---|---|---|
| 2026-05-08 10:05 | -17.75197 | 177.45015 | 60 ft | 0 kts | 104° |
| 2026-05-08 10:08 | -17.75198 | 177.45020 | 60 ft | 1 kts | 104° |
| 2026-05-08 10:09 | -17.75195 | 177.44999 | 51 ft | 3 kts | 86° |
| 2026-05-08 10:09 | -17.75199 | 177.44977 | 51 ft | 3 kts | 64° |
| 2026-05-08 10:09 | -17.75211 | 177.44957 | 51 ft | 3 kts | 46° |
| 2026-05-08 10:09 | -17.75228 | 177.44941 | 51 ft | 3 kts | 34° |
| 2026-05-08 10:10 | -17.75247 | 177.44930 | 51 ft | 3 kts | 22° |
| 2026-05-08 10:10 | -17.75263 | 177.44924 | 51 ft | 1 kts | 12° |
| 2026-05-08 10:10 | -17.75243 | 177.44927 | 51 ft | 0 kts | 12° |
| 2026-05-08 10:13 | -17.75231 | 177.44931 | 52 ft | 4 kts | 14° |
| 2026-05-08 10:13 | -17.75199 | 177.44938 | 55 ft | 7 kts | 14° |
| 2026-05-08 10:13 | -17.75145 | 177.44953 | 57 ft | 9 kts | 14° |
| 2026-05-08 10:13 | -17.75073 | 177.44962 | 52 ft | 11 kts | 354° |
| 2026-05-08 10:14 | -17.75048 | 177.44930 | 54 ft | 5 kts | 289° |
| 2026-05-08 10:14 | -17.75034 | 177.44884 | 55 ft | 8 kts | 287° |
| 2026-05-08 10:14 | -17.75017 | 177.44814 | 52 ft | 12 kts | 285° |
| 2026-05-08 10:14 | -17.75025 | 177.44732 | 51 ft | 13 kts | 229° |
| 2026-05-08 10:15 | -17.75085 | 177.44676 | 51 ft | 0 kts | 217° |
| 2026-05-08 10:16 | -17.75124 | 177.44645 | 50 ft | 34 kts | 217° |
| 2026-05-08 10:16 | -17.75605 | 177.44256 | 52 ft | 138 kts | 217° |
| 2026-05-08 10:16 | -17.76504 | 177.43494 | 533 ft | 187 kts | 224° |
| 2026-05-08 10:16 | -17.77265 | 177.42357 | 1600 ft | 204 kts | 250° |
| 2026-05-08 10:17 | -17.77943 | 177.40910 | 2356 ft | 232 kts | 250° |
| 2026-05-08 10:17 | -17.77964 | 177.39200 | 2908 ft | 249 kts | 294° |
| 2026-05-08 10:17 | -17.76781 | 177.37891 | 3533 ft | 257 kts | 340° |
| 2026-05-08 10:17 | -17.75011 | 177.37793 | 4244 ft | 264 kts | 22° |
| 2026-05-08 10:18 | -17.73474 | 177.38832 | 4919 ft | 274 kts | 49° |
| 2026-05-08 10:18 | -17.72231 | 177.40385 | 5533 ft | 284 kts | 57° |
| 2026-05-08 10:18 | -17.71091 | 177.42106 | 6258 ft | 290 kts | 60° |
| 2026-05-08 10:18 | -17.69931 | 177.43861 | 6991 ft | 294 kts | 58° |
| 2026-05-08 10:19 | -17.68697 | 177.45569 | 7831 ft | 294 kts | 54° |
| 2026-05-08 10:19 | -17.67360 | 177.47191 | 8751 ft | 295 kts | 47° |
| 2026-05-08 10:19 | -17.65918 | 177.48730 | 9636 ft | 297 kts | 45° |
| 2026-05-08 10:20 | -17.62908 | 177.51893 | 10753 ft | 324 kts | 47° |
| 2026-05-08 10:20 | -17.61335 | 177.53637 | 11047 ft | 343 kts | 49° |
| 2026-05-08 10:20 | -17.59683 | 177.55530 | 11367 ft | 360 kts | 49° |
| 2026-05-08 10:20 | -17.57981 | 177.57520 | 11847 ft | 370 kts | 50° |
| 2026-05-08 10:21 | -17.56259 | 177.59550 | 12448 ft | 376 kts | 50° |
| 2026-05-08 10:21 | -17.54516 | 177.61610 | 13064 ft | 381 kts | 51° |
| 2026-05-08 10:21 | -17.52747 | 177.63698 | 13692 ft | 385 kts | 51° |
| 2026-05-08 10:21 | -17.50960 | 177.65804 | 14235 ft | 389 kts | 51° |
| 2026-05-08 10:22 | -17.49146 | 177.67938 | 14770 ft | 394 kts | 50° |
| 2026-05-08 10:22 | -17.47315 | 177.70089 | 15277 ft | 398 kts | 50° |
| 2026-05-08 10:22 | -17.45459 | 177.72267 | 15802 ft | 403 kts | 50° |
| 2026-05-08 10:22 | -17.43607 | 177.74441 | 16281 ft | 408 kts | 50° |
| 2026-05-08 10:23 | -17.41711 | 177.76663 | 16844 ft | 411 kts | 50° |
| 2026-05-08 10:23 | -17.39799 | 177.78904 | 17383 ft | 415 kts | 50° |
| 2026-05-08 10:23 | -17.37864 | 177.81171 | 17888 ft | 419 kts | 50° |
| 2026-05-08 10:23 | -17.35919 | 177.83449 | 18451 ft | 421 kts | 50° |
| 2026-05-08 10:24 | -17.33954 | 177.85749 | 18901 ft | 425 kts | 50° |
| 2026-05-08 10:24 | -17.31975 | 177.88066 | 19362 ft | 429 kts | 50° |
| 2026-05-08 10:24 | -17.29974 | 177.90408 | 19820 ft | 433 kts | 50° |
| 2026-05-08 10:24 | -17.27986 | 177.92733 | 20293 ft | 437 kts | 50° |
| 2026-05-08 10:25 | -17.25955 | 177.95108 | 20792 ft | 440 kts | 50° |
| 2026-05-08 10:25 | -17.23902 | 177.97507 | 21286 ft | 444 kts | 50° |
| 2026-05-08 10:25 | -17.21832 | 177.99927 | 21806 ft | 448 kts | 50° |
| 2026-05-08 10:25 | -17.19748 | 178.02361 | 22307 ft | 452 kts | 50° |
| 2026-05-08 10:26 | -17.17645 | 178.04817 | 22812 ft | 455 kts | 50° |
| 2026-05-08 10:26 | -17.15521 | 178.07297 | 23322 ft | 459 kts | 50° |
| 2026-05-08 10:26 | -17.13381 | 178.09793 | 23789 ft | 464 kts | 50° |
| 2026-05-08 10:26 | -17.11219 | 178.12316 | 24176 ft | 469 kts | 50° |
| 2026-05-08 10:27 | -17.09057 | 178.14837 | 24598 ft | 473 kts | 49° |
| 2026-05-08 10:27 | -17.06852 | 178.17407 | 25066 ft | 478 kts | 49° |
| 2026-05-08 10:27 | -17.04621 | 178.20006 | 25507 ft | 482 kts | 49° |
| 2026-05-08 10:27 | -17.02374 | 178.22622 | 25984 ft | 486 kts | 49° |
| 2026-05-08 10:28 | -17.00109 | 178.25259 | 26452 ft | 490 kts | 49° |
| 2026-05-08 10:28 | -16.97817 | 178.27926 | 26914 ft | 495 kts | 49° |
| 2026-05-08 10:28 | -16.95510 | 178.30610 | 27376 ft | 499 kts | 49° |
| 2026-05-08 10:28 | -16.93177 | 178.33323 | 27828 ft | 504 kts | 49° |
| 2026-05-08 10:29 | -16.90828 | 178.36053 | 28269 ft | 508 kts | 49° |
| 2026-05-08 10:29 | -16.88454 | 178.38811 | 28728 ft | 512 kts | 49° |
| 2026-05-08 10:29 | -16.86096 | 178.41550 | 29160 ft | 517 kts | 49° |
| 2026-05-08 10:29 | -16.83686 | 178.44347 | 29593 ft | 521 kts | 49° |
| 2026-05-08 10:30 | -16.81252 | 178.47171 | 29998 ft | 525 kts | 49° |
| 2026-05-08 10:30 | -16.78800 | 178.50015 | 30320 ft | 530 kts | 49° |
| 2026-05-08 10:30 | -16.76323 | 178.52888 | 30669 ft | 533 kts | 49° |
| 2026-05-08 10:30 | -16.73839 | 178.55766 | 31059 ft | 535 kts | 49° |
| 2026-05-08 10:31 | -16.71343 | 178.58657 | 31441 ft | 538 kts | 49° |
| 2026-05-08 10:31 | -16.68832 | 178.61565 | 31792 ft | 540 kts | 49° |
| 2026-05-08 10:31 | -16.66318 | 178.64475 | 32201 ft | 541 kts | 49° |
| 2026-05-08 10:31 | -16.63791 | 178.67399 | 32531 ft | 543 kts | 48° |
| 2026-05-08 10:32 | -16.61257 | 178.70330 | 32831 ft | 546 kts | 48° |
| 2026-05-08 10:32 | -16.58740 | 178.73242 | 33127 ft | 548 kts | 48° |
| 2026-05-08 10:32 | -16.56212 | 178.76212 | 33539 ft | 547 kts | 50° |
| 2026-05-08 10:32 | -16.53745 | 178.79222 | 33996 ft | 546 kts | 50° |
| 2026-05-08 10:33 | -16.51302 | 178.82254 | 34366 ft | 545 kts | 50° |
| 2026-05-08 10:33 | -16.48874 | 178.85278 | 34735 ft | 544 kts | 50° |
| 2026-05-08 10:33 | -16.46442 | 178.88298 | 35097 ft | 543 kts | 50° |
| 2026-05-08 10:33 | -16.44011 | 178.91302 | 35453 ft | 542 kts | 50° |
| 2026-05-08 10:34 | -16.41575 | 178.94301 | 35827 ft | 541 kts | 50° |
| 2026-05-08 10:34 | -16.39145 | 178.97283 | 36181 ft | 540 kts | 50° |
| 2026-05-08 10:34 | -16.36748 | 179.00218 | 36524 ft | 539 kts | 50° |
| 2026-05-08 10:34 | -16.34317 | 179.03193 | 36850 ft | 538 kts | 50° |
| 2026-05-08 10:35 | -16.31890 | 179.06161 | 36988 ft | 538 kts | 49° |
| 2026-05-08 10:35 | -16.27053 | 179.12074 | 37009 ft | 535 kts | 49° |
| 2026-05-08 10:36 | -16.22227 | 179.17970 | 37007 ft | 535 kts | 49° |
| 2026-05-08 10:36 | -16.17396 | 179.23867 | 37012 ft | 535 kts | 50° |
| 2026-05-08 10:37 | -16.12592 | 179.29727 | 37004 ft | 536 kts | 50° |
| 2026-05-08 10:37 | -16.07747 | 179.35634 | 37004 ft | 537 kts | 50° |
| 2026-05-08 10:38 | -16.02897 | 179.41539 | 37004 ft | 537 kts | 50° |
| 2026-05-08 10:38 | -15.98053 | 179.47435 | 36998 ft | 536 kts | 49° |
| 2026-05-08 10:39 | -15.93244 | 179.53282 | 37004 ft | 535 kts | 49° |
| 2026-05-08 10:39 | -15.88410 | 179.59154 | 36999 ft | 534 kts | 49° |
| 2026-05-08 10:40 | -15.83575 | 179.65023 | 37000 ft | 535 kts | 49° |
| 2026-05-08 10:40 | -15.78738 | 179.70890 | 36998 ft | 536 kts | 49° |
| 2026-05-08 10:41 | -15.73890 | 179.76766 | 37001 ft | 536 kts | 49° |
| 2026-05-08 10:41 | -15.69073 | 179.82599 | 37001 ft | 536 kts | 49° |
| 2026-05-08 10:42 | -15.64223 | 179.88468 | 36993 ft | 536 kts | 49° |
| 2026-05-08 10:42 | -15.59378 | 179.94326 | 37001 ft | 534 kts | 49° |
| 2026-05-08 10:43 | -15.54543 | -179.99833 | 37015 ft | 533 kts | 49° |
| 2026-05-08 10:43 | -15.49713 | -179.94003 | 36999 ft | 532 kts | 49° |
| 2026-05-08 10:44 | -15.44923 | -179.88225 | 36999 ft | 532 kts | 49° |
| 2026-05-08 10:44 | -15.40094 | -179.82404 | 36999 ft | 532 kts | 49° |
| 2026-05-08 10:45 | -15.35264 | -179.76587 | 36990 ft | 532 kts | 49° |
| 2026-05-08 10:45 | -15.30430 | -179.70772 | 36991 ft | 532 kts | 49° |
| 2026-05-08 10:46 | -15.25628 | -179.65002 | 36995 ft | 531 kts | 49° |
| 2026-05-08 10:46 | -15.20825 | -179.59203 | 36994 ft | 530 kts | 49° |
| 2026-05-08 10:47 | -15.16034 | -179.53419 | 36993 ft | 530 kts | 49° |
| 2026-05-08 10:47 | -15.12044 | -179.48612 | 36993 ft | 530 kts | 49° |
| 2026-05-08 10:48 | -15.06460 | -179.41892 | 36993 ft | 530 kts | 49° |
| 2026-05-08 10:48 | -15.01653 | -179.36113 | 36993 ft | 530 kts | 49° |
| 2026-05-08 10:49 | -14.97658 | -179.31313 | 36991 ft | 530 kts | 49° |
| 2026-05-08 10:49 | -14.92848 | -179.25538 | 36990 ft | 530 kts | 49° |
| 2026-05-08 10:50 | -14.87271 | -179.18847 | 36991 ft | 528 kts | 49° |
| 2026-05-08 10:50 | -14.82475 | -179.13098 | 36990 ft | 528 kts | 49° |
| 2026-05-08 10:51 | -14.78487 | -179.08322 | 36991 ft | 528 kts | 49° |
| 2026-05-08 10:51 | -14.73687 | -179.02576 | 36990 ft | 528 kts | 49° |
| 2026-05-08 10:52 | -14.68887 | -178.96833 | 36989 ft | 528 kts | 49° |
| 2026-05-08 10:52 | -14.64084 | -178.91093 | 36990 ft | 528 kts | 49° |
| 2026-05-08 10:53 | -14.59317 | -178.85399 | 36996 ft | 528 kts | 49° |
| 2026-05-08 10:53 | -14.54507 | -178.79657 | 36992 ft | 530 kts | 49° |
| 2026-05-08 10:54 | -14.49681 | -178.73902 | 36988 ft | 530 kts | 49° |
| 2026-05-08 10:54 | -14.44852 | -178.68147 | 36988 ft | 530 kts | 49° |
| 2026-05-08 10:55 | -14.40053 | -178.62431 | 36988 ft | 530 kts | 49° |
| 2026-05-08 10:55 | -14.35223 | -178.56682 | 36988 ft | 530 kts | 49° |
| 2026-05-08 10:56 | -14.30390 | -178.50934 | 36985 ft | 530 kts | 49° |
| 2026-05-08 10:56 | -14.25563 | -178.45198 | 36986 ft | 530 kts | 49° |
| 2026-05-08 10:57 | -14.20722 | -178.39449 | 36974 ft | 531 kts | 49° |
| 2026-05-08 10:57 | -14.13509 | -178.30890 | 36985 ft | 528 kts | 49° |
| 2026-05-08 10:58 | -14.08691 | -178.25179 | 36985 ft | 528 kts | 49° |
| 2026-05-08 10:58 | -14.03872 | -178.19470 | 36979 ft | 528 kts | 49° |
| 2026-05-08 10:59 | -13.99082 | -178.13800 | 36979 ft | 528 kts | 49° |
| 2026-05-08 10:59 | -13.94260 | -178.08095 | 36981 ft | 528 kts | 49° |
| 2026-05-08 11:00 | -13.89433 | -178.02389 | 36983 ft | 529 kts | 49° |
| 2026-05-08 11:00 | -13.84604 | -177.96684 | 36972 ft | 529 kts | 49° |
| 2026-05-08 11:01 | -13.79778 | -177.90986 | 36979 ft | 527 kts | 49° |
| 2026-05-08 11:01 | -13.74999 | -177.85348 | 36974 ft | 526 kts | 49° |
| 2026-05-08 11:02 | -13.67788 | -177.76849 | 36974 ft | 526 kts | 49° |
| 2026-05-08 11:03 | -13.62977 | -177.71182 | 36973 ft | 526 kts | 49° |
| 2026-05-08 11:03 | -13.58193 | -177.65552 | 36971 ft | 526 kts | 49° |
| 2026-05-08 11:04 | -13.53373 | -177.59883 | 36972 ft | 527 kts | 49° |
| 2026-05-08 11:04 | -13.48550 | -177.54213 | 36971 ft | 527 kts | 49° |
| 2026-05-08 11:05 | -13.43734 | -177.48557 | 36970 ft | 525 kts | 49° |
| 2026-05-08 11:05 | -13.38930 | -177.42918 | 36972 ft | 524 kts | 49° |
| 2026-05-08 11:06 | -13.34159 | -177.37321 | 36973 ft | 524 kts | 49° |
| 2026-05-08 11:06 | -13.29355 | -177.31689 | 36966 ft | 524 kts | 49° |
| 2026-05-08 11:07 | -13.24552 | -177.26062 | 36966 ft | 525 kts | 49° |
| 2026-05-08 11:07 | -13.19741 | -177.20430 | 36965 ft | 525 kts | 49° |
| 2026-05-08 11:08 | -13.14961 | -177.14837 | 36966 ft | 525 kts | 48° |
| 2026-05-08 11:08 | -13.10147 | -177.09209 | 36964 ft | 525 kts | 48° |
| 2026-05-08 11:09 | -13.05332 | -177.03583 | 36965 ft | 525 kts | 48° |
| 2026-05-08 11:09 | -13.00513 | -176.97960 | 36963 ft | 525 kts | 48° |
| 2026-05-08 11:10 | -12.95690 | -176.92342 | 36964 ft | 525 kts | 48° |
| 2026-05-08 11:10 | -12.90901 | -176.86763 | 36964 ft | 525 kts | 48° |
| 2026-05-08 11:11 | -12.86073 | -176.81143 | 36959 ft | 525 kts | 48° |
| 2026-05-08 11:11 | -12.81242 | -176.75524 | 36957 ft | 525 kts | 48° |
| 2026-05-08 11:12 | -12.76410 | -176.69908 | 36960 ft | 525 kts | 48° |
| 2026-05-08 11:12 | -12.71609 | -176.64331 | 36960 ft | 525 kts | 48° |
| 2026-05-08 11:13 | -12.66774 | -176.58720 | 36959 ft | 525 kts | 48° |
| 2026-05-08 11:13 | -12.61938 | -176.53109 | 36958 ft | 525 kts | 48° |
| 2026-05-08 11:14 | -12.57103 | -176.47504 | 36958 ft | 525 kts | 48° |
| 2026-05-08 11:14 | -12.52272 | -176.41907 | 36958 ft | 525 kts | 47° |
| 2026-05-08 11:15 | -12.47468 | -176.36344 | 36961 ft | 525 kts | 47° |
| 2026-05-08 11:15 | -12.42632 | -176.30748 | 36956 ft | 525 kts | 47° |
| 2026-05-08 11:16 | -12.37795 | -176.25153 | 36943 ft | 525 kts | 47° |
| 2026-05-08 11:16 | -12.32960 | -176.19564 | 36955 ft | 524 kts | 47° |
| 2026-05-08 11:17 | -12.28129 | -176.13985 | 36953 ft | 523 kts | 47° |
| 2026-05-08 11:17 | -12.23341 | -176.08457 | 36952 ft | 522 kts | 47° |
| 2026-05-08 11:18 | -12.18521 | -176.02896 | 36952 ft | 522 kts | 47° |
| 2026-05-08 11:18 | -12.13706 | -175.97344 | 36953 ft | 523 kts | 47° |
| 2026-05-08 11:19 | -12.08882 | -175.91785 | 36950 ft | 523 kts | 47° |
| 2026-05-08 11:19 | -12.04090 | -175.86266 | 36949 ft | 522 kts | 47° |
| 2026-05-08 11:20 | -11.99266 | -175.80713 | 36949 ft | 522 kts | 47° |
| 2026-05-08 11:20 | -11.94445 | -175.75167 | 36948 ft | 522 kts | 47° |
| 2026-05-08 11:21 | -11.89626 | -175.69627 | 36950 ft | 522 kts | 47° |
| 2026-05-08 11:21 | -11.84843 | -175.64130 | 36950 ft | 522 kts | 47° |
| 2026-05-08 11:22 | -11.80021 | -175.58593 | 36945 ft | 522 kts | 47° |
| 2026-05-08 11:22 | -11.75199 | -175.53059 | 36947 ft | 522 kts | 47° |
| 2026-05-08 11:23 | -11.70407 | -175.47563 | 36949 ft | 522 kts | 47° |
| 2026-05-08 11:23 | -11.65583 | -175.42032 | 36952 ft | 522 kts | 47° |
| 2026-05-08 11:24 | -11.60761 | -175.36506 | 36947 ft | 521 kts | 47° |
| 2026-05-08 11:24 | -11.55948 | -175.30994 | 36944 ft | 521 kts | 47° |
| 2026-05-08 11:25 | -11.51130 | -175.25481 | 36944 ft | 521 kts | 47° |
| 2026-05-08 11:25 | -11.46310 | -175.19968 | 36943 ft | 521 kts | 47° |
| 2026-05-08 11:26 | -11.41522 | -175.14494 | 36944 ft | 521 kts | 47° |
| 2026-05-08 11:26 | -11.36700 | -175.08984 | 36944 ft | 521 kts | 47° |
| 2026-05-08 11:27 | -11.31877 | -175.03476 | 36947 ft | 521 kts | 47° |
| 2026-05-08 11:27 | -11.27085 | -174.98006 | 36944 ft | 521 kts | 47° |
| 2026-05-08 11:28 | -11.22257 | -174.92500 | 36938 ft | 521 kts | 47° |
| 2026-05-08 11:28 | -11.17431 | -174.86998 | 36938 ft | 521 kts | 47° |
| 2026-05-08 11:29 | -11.12592 | -174.81484 | 36939 ft | 521 kts | 47° |
| 2026-05-08 11:29 | -11.07763 | -174.75983 | 36940 ft | 521 kts | 47° |
| 2026-05-08 11:30 | -11.02958 | -174.70515 | 36941 ft | 521 kts | 47° |
| 2026-05-08 11:30 | -10.98122 | -174.65013 | 36944 ft | 521 kts | 46° |
| 2026-05-08 11:31 | -10.93283 | -174.59510 | 36936 ft | 522 kts | 46° |
| 2026-05-08 11:31 | -10.88441 | -174.54009 | 36937 ft | 522 kts | 46° |
| 2026-05-08 11:32 | -10.83635 | -174.48550 | 36940 ft | 522 kts | 46° |
| 2026-05-08 11:32 | -10.78787 | -174.43046 | 36936 ft | 522 kts | 46° |
| 2026-05-08 11:33 | -10.73948 | -174.37556 | 36934 ft | 522 kts | 46° |
| 2026-05-08 11:33 | -10.69104 | -174.32062 | 36936 ft | 522 kts | 46° |
| 2026-05-08 11:34 | -10.64290 | -174.26605 | 36938 ft | 522 kts | 46° |
| 2026-05-08 11:34 | -10.59441 | -174.21112 | 36936 ft | 522 kts | 46° |
| 2026-05-08 11:35 | -10.54591 | -174.15620 | 36936 ft | 522 kts | 46° |
| 2026-05-08 11:35 | -10.49739 | -174.10130 | 36932 ft | 522 kts | 46° |
| 2026-05-08 11:36 | -10.44918 | -174.04677 | 36935 ft | 523 kts | 46° |
| 2026-05-08 11:36 | -10.40058 | -173.99181 | 36936 ft | 523 kts | 46° |
| 2026-05-08 11:37 | -10.35196 | -173.93687 | 36933 ft | 523 kts | 46° |
| 2026-05-08 11:37 | -10.30332 | -173.88194 | 36934 ft | 523 kts | 46° |
| 2026-05-08 11:38 | -10.25495 | -173.82732 | 36939 ft | 524 kts | 46° |
| 2026-05-08 11:38 | -10.20623 | -173.77236 | 36936 ft | 524 kts | 46° |
| 2026-05-08 11:39 | -10.15751 | -173.71741 | 36933 ft | 523 kts | 46° |
| 2026-05-08 11:39 | -10.10880 | -173.66250 | 36933 ft | 523 kts | 46° |
| 2026-05-08 11:40 | -10.06048 | -173.60806 | 36936 ft | 523 kts | 46° |
| 2026-05-08 11:40 | -10.01179 | -173.55323 | 36936 ft | 523 kts | 46° |
| 2026-05-08 11:41 | -9.96309 | -173.49842 | 36934 ft | 523 kts | 46° |
| 2026-05-08 11:41 | -9.91443 | -173.44367 | 36934 ft | 522 kts | 46° |
| 2026-05-08 11:42 | -9.86611 | -173.38933 | 36936 ft | 522 kts | 46° |
| 2026-05-08 11:42 | -9.81744 | -173.33464 | 36936 ft | 522 kts | 46° |
| 2026-05-08 11:43 | -9.76877 | -173.27996 | 36933 ft | 522 kts | 46° |
| 2026-05-08 11:43 | -9.72014 | -173.22535 | 36930 ft | 521 kts | 46° |
| 2026-05-08 11:44 | -9.67199 | -173.17131 | 36928 ft | 520 kts | 46° |
| 2026-05-08 11:44 | -9.62353 | -173.11694 | 36929 ft | 519 kts | 45° |
| 2026-05-08 11:45 | -9.57511 | -173.06265 | 36937 ft | 519 kts | 45° |
| 2026-05-08 11:45 | -9.52671 | -173.00841 | 36932 ft | 519 kts | 45° |
| 2026-05-08 11:46 | -9.47861 | -172.95453 | 36929 ft | 519 kts | 45° |
| 2026-05-08 11:46 | -9.43020 | -172.90033 | 36933 ft | 519 kts | 45° |
| 2026-05-08 11:47 | -9.38182 | -172.84610 | 36929 ft | 519 kts | 45° |
| 2026-05-08 11:47 | -9.33347 | -172.79192 | 36927 ft | 518 kts | 45° |
| 2026-05-08 11:48 | -9.28521 | -172.73788 | 36924 ft | 518 kts | 45° |
| 2026-05-08 11:48 | -9.23721 | -172.68416 | 36924 ft | 518 kts | 45° |
| 2026-05-08 11:49 | -9.18890 | -172.63013 | 36932 ft | 518 kts | 45° |
| 2026-05-08 11:49 | -9.14056 | -172.57609 | 36934 ft | 518 kts | 45° |
| 2026-05-08 11:50 | -9.09223 | -172.52208 | 36924 ft | 518 kts | 45° |
| 2026-05-08 11:50 | -9.04421 | -172.46843 | 36924 ft | 518 kts | 45° |
| 2026-05-08 11:51 | -8.99587 | -172.41447 | 36925 ft | 517 kts | 46° |
| 2026-05-08 11:51 | -8.94763 | -172.36063 | 36927 ft | 517 kts | 45° |
| 2026-05-08 11:52 | -8.89968 | -172.30712 | 36926 ft | 517 kts | 45° |
| 2026-05-08 11:52 | -8.85139 | -172.25328 | 36924 ft | 517 kts | 45° |
| 2026-05-08 11:53 | -8.80309 | -172.19944 | 36922 ft | 517 kts | 45° |
| 2026-05-08 11:53 | -8.75479 | -172.14562 | 36926 ft | 517 kts | 45° |
| 2026-05-08 11:54 | -8.70680 | -172.09217 | 36925 ft | 517 kts | 45° |
| 2026-05-08 11:54 | -8.65849 | -172.03838 | 36924 ft | 517 kts | 45° |
| 2026-05-08 11:55 | -8.61022 | -171.98467 | 36924 ft | 517 kts | 46° |
| 2026-05-08 11:55 | -8.56190 | -171.93093 | 36923 ft | 516 kts | 46° |
| 2026-05-08 11:56 | -8.51392 | -171.87758 | 36925 ft | 516 kts | 46° |
| 2026-05-08 11:56 | -8.46561 | -171.82387 | 36924 ft | 516 kts | 46° |
| 2026-05-08 11:57 | -8.41729 | -171.77019 | 36921 ft | 516 kts | 46° |
| 2026-05-08 11:57 | -8.36929 | -171.71688 | 36921 ft | 516 kts | 46° |
| 2026-05-08 11:58 | -8.32100 | -171.66327 | 36927 ft | 516 kts | 46° |
| 2026-05-08 11:58 | -8.27266 | -171.60963 | 36921 ft | 516 kts | 46° |
| 2026-05-08 11:59 | -8.20022 | -171.52928 | 36921 ft | 515 kts | 46° |
| 2026-05-08 11:59 | -8.15197 | -171.47579 | 36921 ft | 514 kts | 46° |
| 2026-05-08 12:00 | -8.10414 | -171.42279 | 36923 ft | 515 kts | 46° |
| 2026-05-08 12:00 | -8.05592 | -171.36937 | 36921 ft | 515 kts | 46° |
| 2026-05-08 12:01 | -8.00768 | -171.31596 | 36919 ft | 515 kts | 46° |
| 2026-05-08 12:01 | -7.95976 | -171.26291 | 36920 ft | 515 kts | 46° |
| 2026-05-08 12:02 | -7.91155 | -171.20956 | 36919 ft | 514 kts | 46° |
| 2026-05-08 12:02 | -7.86340 | -171.15631 | 36917 ft | 514 kts | 46° |
| 2026-05-08 12:03 | -7.81553 | -171.10338 | 36916 ft | 513 kts | 46° |
| 2026-05-08 12:03 | -7.76750 | -171.05029 | 36913 ft | 513 kts | 46° |
| 2026-05-08 12:04 | -7.71943 | -170.99717 | 36913 ft | 513 kts | 46° |
| 2026-05-08 12:04 | -7.67132 | -170.94405 | 36915 ft | 513 kts | 46° |
| 2026-05-08 12:05 | -7.62323 | -170.89094 | 36910 ft | 513 kts | 46° |
| 2026-05-08 12:05 | -7.57549 | -170.83825 | 36908 ft | 512 kts | 46° |
| 2026-05-08 12:06 | -7.52746 | -170.78526 | 36909 ft | 512 kts | 46° |
| 2026-05-08 12:06 | -7.47942 | -170.73229 | 36905 ft | 512 kts | 46° |
| 2026-05-08 12:07 | -7.43144 | -170.67938 | 36908 ft | 512 kts | 46° |
| 2026-05-08 12:07 | -7.38370 | -170.62677 | 36911 ft | 512 kts | 46° |
| 2026-05-08 12:08 | -7.33568 | -170.57386 | 36912 ft | 512 kts | 46° |
| 2026-05-08 12:08 | -7.28762 | -170.52093 | 36907 ft | 512 kts | 46° |
| 2026-05-08 12:09 | -7.23960 | -170.46806 | 36905 ft | 511 kts | 46° |
| 2026-05-08 12:09 | -7.19192 | -170.41559 | 36905 ft | 511 kts | 46° |
| 2026-05-08 12:10 | -7.14391 | -170.36277 | 36905 ft | 511 kts | 46° |
| 2026-05-08 12:10 | -7.09591 | -170.30996 | 36905 ft | 511 kts | 46° |
| 2026-05-08 12:11 | -7.04789 | -170.25717 | 36907 ft | 511 kts | 46° |
| 2026-05-08 12:11 | -6.99991 | -170.20444 | 36905 ft | 511 kts | 46° |
| 2026-05-08 12:12 | -6.95220 | -170.15201 | 36906 ft | 511 kts | 46° |
| 2026-05-08 12:12 | -6.90423 | -170.09931 | 36906 ft | 510 kts | 46° |
| 2026-05-08 12:13 | -6.85630 | -170.04669 | 36903 ft | 510 kts | 46° |
| 2026-05-08 12:13 | -6.80837 | -169.99408 | 36902 ft | 510 kts | 46° |
| 2026-05-08 12:14 | -6.76075 | -169.94182 | 36905 ft | 510 kts | 46° |
| 2026-05-08 12:14 | -6.71281 | -169.88922 | 36910 ft | 510 kts | 46° |
| 2026-05-08 12:15 | -6.66492 | -169.83671 | 36902 ft | 509 kts | 46° |
| 2026-05-08 12:15 | -6.61706 | -169.78424 | 36906 ft | 509 kts | 46° |
| 2026-05-08 12:16 | -6.56959 | -169.73221 | 36901 ft | 508 kts | 46° |
| 2026-05-08 12:16 | -6.52178 | -169.67983 | 36903 ft | 508 kts | 46° |
| 2026-05-08 12:17 | -6.47397 | -169.62746 | 36903 ft | 508 kts | 46° |
| 2026-05-08 12:17 | -6.42615 | -169.57510 | 36902 ft | 508 kts | 46° |
| 2026-05-08 12:18 | -6.37864 | -169.52309 | 36901 ft | 508 kts | 46° |
| 2026-05-08 12:18 | -6.33081 | -169.47075 | 36900 ft | 508 kts | 46° |
| 2026-05-08 12:19 | -6.28300 | -169.41843 | 36899 ft | 508 kts | 46° |
| 2026-05-08 12:19 | -6.23524 | -169.36620 | 36896 ft | 507 kts | 46° |
| 2026-05-08 12:20 | -6.18790 | -169.31443 | 36901 ft | 507 kts | 46° |
| 2026-05-08 12:20 | -6.14018 | -169.26228 | 36899 ft | 507 kts | 46° |
| 2026-05-08 12:21 | -6.09247 | -169.21014 | 36897 ft | 507 kts | 46° |
| 2026-05-08 12:21 | -6.04475 | -169.15801 | 36899 ft | 507 kts | 46° |
| 2026-05-08 12:22 | -5.99733 | -169.10622 | 36897 ft | 507 kts | 46° |
| 2026-05-08 12:22 | -5.94960 | -169.05411 | 36893 ft | 507 kts | 46° |
| 2026-05-08 12:23 | -5.90194 | -169.00208 | 36896 ft | 506 kts | 46° |
| 2026-05-08 12:23 | -5.85432 | -168.95012 | 36896 ft | 505 kts | 46° |
| 2026-05-08 12:24 | -5.80670 | -168.89817 | 36893 ft | 505 kts | 46° |
| 2026-05-08 12:24 | -5.75939 | -168.84656 | 36896 ft | 506 kts | 46° |
| 2026-05-08 12:25 | -5.71180 | -168.79467 | 36893 ft | 506 kts | 46° |
| 2026-05-08 12:25 | -5.66416 | -168.74274 | 36895 ft | 505 kts | 46° |
| 2026-05-08 12:26 | -5.61654 | -168.69084 | 36893 ft | 505 kts | 46° |
| 2026-05-08 12:26 | -5.56924 | -168.63931 | 36889 ft | 504 kts | 46° |
| 2026-05-08 12:27 | -5.52172 | -168.58754 | 36893 ft | 504 kts | 46° |
| 2026-05-08 12:27 | -5.47420 | -168.53579 | 36892 ft | 504 kts | 46° |
| 2026-05-08 12:28 | -5.42667 | -168.48405 | 36893 ft | 504 kts | 46° |
| 2026-05-08 12:28 | -5.37913 | -168.43230 | 36890 ft | 504 kts | 46° |
| 2026-05-08 12:29 | -5.33194 | -168.38096 | 36885 ft | 504 kts | 46° |
| 2026-05-08 12:29 | -5.28440 | -168.32924 | 36884 ft | 504 kts | 46° |
| 2026-05-08 12:30 | -5.23686 | -168.27754 | 36892 ft | 504 kts | 46° |
| 2026-05-08 12:30 | -5.18932 | -168.22584 | 36886 ft | 504 kts | 46° |
| 2026-05-08 12:31 | -5.14210 | -168.17450 | 36886 ft | 504 kts | 46° |
| 2026-05-08 12:31 | -5.09459 | -168.12287 | 36888 ft | 503 kts | 46° |
| 2026-05-08 12:32 | -5.04713 | -168.07130 | 36885 ft | 504 kts | 46° |
| 2026-05-08 12:32 | -4.99960 | -168.01968 | 36888 ft | 504 kts | 46° |
| 2026-05-08 12:33 | -4.95235 | -167.96843 | 36888 ft | 504 kts | 46° |
| 2026-05-08 12:33 | -4.90483 | -167.91686 | 36887 ft | 503 kts | 46° |
| 2026-05-08 12:34 | -4.85741 | -167.86541 | 36885 ft | 502 kts | 46° |
| 2026-05-08 12:34 | -4.81032 | -167.81434 | 36884 ft | 502 kts | 46° |
| 2026-05-08 12:35 | -4.76291 | -167.76295 | 36884 ft | 502 kts | 46° |
| 2026-05-08 12:35 | -4.71560 | -167.71167 | 36884 ft | 501 kts | 46° |
| 2026-05-08 12:36 | -4.66823 | -167.66034 | 36880 ft | 501 kts | 46° |
| 2026-05-08 12:36 | -4.62086 | -167.60902 | 36881 ft | 501 kts | 46° |
| 2026-05-08 12:37 | -4.57380 | -167.55805 | 36882 ft | 501 kts | 46° |
| 2026-05-08 12:37 | -4.52646 | -167.50679 | 36881 ft | 501 kts | 46° |
| 2026-05-08 12:38 | -4.47912 | -167.45553 | 36880 ft | 501 kts | 46° |
| 2026-05-08 12:38 | -4.43177 | -167.40428 | 36880 ft | 501 kts | 46° |
| 2026-05-08 12:39 | -4.38475 | -167.35337 | 36880 ft | 501 kts | 46° |
| 2026-05-08 12:39 | -4.33746 | -167.30220 | 36881 ft | 501 kts | 46° |
| 2026-05-08 12:40 | -4.29011 | -167.25098 | 36881 ft | 501 kts | 46° |
| 2026-05-08 12:40 | -4.24279 | -167.19979 | 36880 ft | 501 kts | 46° |
| 2026-05-08 12:41 | -4.19578 | -167.14895 | 36881 ft | 500 kts | 46° |
| 2026-05-08 12:41 | -4.14847 | -167.09780 | 36881 ft | 500 kts | 46° |
| 2026-05-08 12:42 | -4.10116 | -167.04666 | 36881 ft | 500 kts | 46° |
| 2026-05-08 12:42 | -4.05384 | -166.99552 | 36881 ft | 500 kts | 46° |
| 2026-05-08 12:43 | -4.00657 | -166.94443 | 36881 ft | 500 kts | 46° |
| 2026-05-08 12:43 | -3.95968 | -166.89377 | 36803 ft | 500 kts | 46° |
| 2026-05-08 12:44 | -3.91237 | -166.84266 | 36870 ft | 499 kts | 46° |
| 2026-05-08 12:44 | -3.86511 | -166.79162 | 36878 ft | 500 kts | 46° |
| 2026-05-08 12:45 | -3.81778 | -166.74052 | 36876 ft | 500 kts | 46° |
| 2026-05-08 12:45 | -3.77054 | -166.68951 | 36876 ft | 500 kts | 46° |
| 2026-05-08 12:46 | -3.72355 | -166.63878 | 36878 ft | 500 kts | 46° |
| 2026-05-08 12:46 | -3.67630 | -166.58779 | 36877 ft | 499 kts | 46° |
| 2026-05-08 12:47 | -3.62912 | -166.53688 | 36876 ft | 498 kts | 46° |
| 2026-05-08 12:47 | -3.58199 | -166.48602 | 36881 ft | 498 kts | 46° |
| 2026-05-08 12:48 | -3.53530 | -166.43566 | 36877 ft | 497 kts | 46° |
| 2026-05-08 12:48 | -3.48830 | -166.38497 | 36879 ft | 496 kts | 46° |
| 2026-05-08 12:49 | -3.44135 | -166.33433 | 36881 ft | 497 kts | 46° |
| 2026-05-08 12:49 | -3.39432 | -166.28362 | 36880 ft | 497 kts | 46° |
| 2026-05-08 12:50 | -3.34767 | -166.23333 | 36881 ft | 497 kts | 46° |
| 2026-05-08 12:50 | -3.30066 | -166.18266 | 36880 ft | 496 kts | 46° |
| 2026-05-08 12:51 | -3.23023 | -166.10674 | 36878 ft | 496 kts | 46° |
| 2026-05-08 12:52 | -3.18321 | -166.05609 | 36881 ft | 496 kts | 46° |
| 2026-05-08 12:52 | -3.11316 | -165.98062 | 36882 ft | 496 kts | 46° |
| 2026-05-08 12:53 | -3.06620 | -165.93005 | 36881 ft | 496 kts | 46° |
| 2026-05-08 12:53 | -3.01926 | -165.87949 | 36881 ft | 496 kts | 46° |
| 2026-05-08 12:54 | -2.97266 | -165.82931 | 36881 ft | 496 kts | 46° |
| 2026-05-08 12:54 | -2.92576 | -165.77881 | 36881 ft | 495 kts | 46° |
| 2026-05-08 12:55 | -2.87888 | -165.72832 | 36881 ft | 495 kts | 46° |
| 2026-05-08 12:55 | -2.83204 | -165.67790 | 36882 ft | 495 kts | 46° |
| 2026-05-08 12:56 | -2.78524 | -165.62753 | 36880 ft | 495 kts | 46° |
| 2026-05-08 12:56 | -2.73869 | -165.57745 | 36881 ft | 494 kts | 46° |
| 2026-05-08 12:57 | -2.69184 | -165.52704 | 36878 ft | 494 kts | 46° |
| 2026-05-08 12:57 | -2.64504 | -165.47669 | 36875 ft | 495 kts | 46° |
| 2026-05-08 12:58 | -2.59818 | -165.42626 | 36876 ft | 495 kts | 46° |
| 2026-05-08 12:58 | -2.55134 | -165.37588 | 36876 ft | 494 kts | 46° |
| 2026-05-08 12:59 | -2.50490 | -165.32594 | 36880 ft | 494 kts | 46° |
| 2026-05-08 12:59 | -2.45809 | -165.27560 | 36879 ft | 494 kts | 46° |
| 2026-05-08 13:00 | -2.41128 | -165.22527 | 36881 ft | 494 kts | 46° |
| 2026-05-08 13:00 | -2.36453 | -165.17500 | 36880 ft | 494 kts | 45° |
| 2026-05-08 13:01 | -2.31801 | -165.12499 | 36876 ft | 494 kts | 46° |
| 2026-05-08 13:01 | -2.27121 | -165.07468 | 36875 ft | 494 kts | 46° |
| 2026-05-08 13:02 | -2.22445 | -165.02442 | 36874 ft | 494 kts | 45° |
| 2026-05-08 13:02 | -2.17766 | -164.97413 | 36875 ft | 493 kts | 46° |
| 2026-05-08 13:03 | -2.13127 | -164.92429 | 36875 ft | 493 kts | 46° |
| 2026-05-08 13:03 | -2.08460 | -164.87415 | 36875 ft | 493 kts | 46° |
| 2026-05-08 13:04 | -2.03788 | -164.82394 | 36872 ft | 493 kts | 45° |
| 2026-05-08 13:04 | -1.99115 | -164.77374 | 36876 ft | 493 kts | 46° |
| 2026-05-08 13:05 | -1.94480 | -164.72396 | 36874 ft | 493 kts | 46° |
| 2026-05-08 13:05 | -1.89808 | -164.67376 | 36876 ft | 493 kts | 45° |
| 2026-05-08 13:06 | -1.85135 | -164.62357 | 36870 ft | 493 kts | 45° |
| 2026-05-08 13:06 | -1.80466 | -164.57343 | 36869 ft | 492 kts | 46° |
| 2026-05-08 13:07 | -1.75812 | -164.52346 | 36869 ft | 491 kts | 45° |
| 2026-05-08 13:07 | -1.71158 | -164.47349 | 36870 ft | 491 kts | 46° |
| 2026-05-08 13:08 | -1.66538 | -164.42389 | 36869 ft | 491 kts | 46° |
| 2026-05-08 13:08 | -1.61882 | -164.37391 | 36869 ft | 491 kts | 46° |
| 2026-05-08 13:09 | -1.57226 | -164.32391 | 36869 ft | 491 kts | 45° |
| 2026-05-08 13:09 | -1.52574 | -164.27397 | 36871 ft | 491 kts | 46° |
| 2026-05-08 13:10 | -1.47948 | -164.22432 | 36871 ft | 491 kts | 45° |
| 2026-05-08 13:10 | -1.43301 | -164.17444 | 36870 ft | 490 kts | 45° |
| 2026-05-08 13:11 | -1.38658 | -164.12460 | 36867 ft | 490 kts | 46° |
| 2026-05-08 13:11 | -1.34018 | -164.07480 | 36865 ft | 489 kts | 46° |
| 2026-05-08 13:12 | -1.29407 | -164.02533 | 36865 ft | 489 kts | 45° |
| 2026-05-08 13:12 | -1.24767 | -163.97559 | 36867 ft | 489 kts | 46° |
| 2026-05-08 13:13 | -1.20129 | -163.92580 | 36866 ft | 489 kts | 46° |
| 2026-05-08 13:13 | -1.15493 | -163.87600 | 36866 ft | 489 kts | 46° |
| 2026-05-08 13:14 | -1.10855 | -163.82621 | 36868 ft | 489 kts | 46° |
| 2026-05-08 13:14 | -1.06257 | -163.77686 | 36864 ft | 488 kts | 46° |
| 2026-05-08 13:15 | -1.01637 | -163.72726 | 36868 ft | 487 kts | 46° |
| 2026-05-08 13:15 | -0.97020 | -163.67772 | 36868 ft | 487 kts | 46° |
| 2026-05-08 13:16 | -0.92403 | -163.62817 | 36867 ft | 487 kts | 46° |
| 2026-05-08 13:16 | -0.87790 | -163.57867 | 36867 ft | 487 kts | 46° |
| 2026-05-08 13:17 | -0.83203 | -163.52946 | 36867 ft | 487 kts | 46° |
| 2026-05-08 13:17 | -0.78593 | -163.47999 | 36864 ft | 487 kts | 46° |
| 2026-05-08 13:18 | -0.73977 | -163.43046 | 36865 ft | 487 kts | 46° |
| 2026-05-08 13:18 | -0.69362 | -163.38094 | 36867 ft | 486 kts | 46° |
| 2026-05-08 13:19 | -0.64795 | -163.33194 | 36865 ft | 485 kts | 46° |
| 2026-05-08 13:19 | -0.60197 | -163.28260 | 36864 ft | 485 kts | 46° |
| 2026-05-08 13:20 | -0.55604 | -163.23333 | 36865 ft | 484 kts | 46° |
| 2026-05-08 13:20 | -0.51021 | -163.18416 | 36864 ft | 484 kts | 46° |
| 2026-05-08 13:21 | -0.46465 | -163.13528 | 36864 ft | 484 kts | 46° |
| 2026-05-08 13:21 | -0.41883 | -163.08612 | 36864 ft | 484 kts | 46° |
| 2026-05-08 13:22 | -0.37295 | -163.03691 | 36864 ft | 484 kts | 46° |
| 2026-05-08 13:22 | -0.32710 | -162.98773 | 36864 ft | 483 kts | 46° |
| 2026-05-08 13:23 | -0.28172 | -162.93904 | 36867 ft | 482 kts | 46° |
| 2026-05-08 13:23 | -0.23608 | -162.89008 | 36864 ft | 481 kts | 46° |
| 2026-05-08 13:24 | -0.19048 | -162.84117 | 36862 ft | 481 kts | 46° |
| 2026-05-08 13:24 | -0.14489 | -162.79226 | 36862 ft | 481 kts | 46° |
| 2026-05-08 13:25 | -0.09963 | -162.74372 | 36861 ft | 481 kts | 46° |
| 2026-05-08 13:25 | -0.05404 | -162.69481 | 36862 ft | 481 kts | 46° |
| 2026-05-08 13:26 | -0.00846 | -162.64591 | 36862 ft | 481 kts | 46° |
| 2026-05-08 13:26 | 0.03715 | -162.59699 | 36866 ft | 481 kts | 46° |
| 2026-05-08 13:27 | 0.08266 | -162.54817 | 36862 ft | 480 kts | 46° |
| 2026-05-08 13:27 | 0.12790 | -162.49964 | 36862 ft | 480 kts | 46° |
| 2026-05-08 13:28 | 0.17344 | -162.45079 | 36862 ft | 480 kts | 46° |
| 2026-05-08 13:28 | 0.21899 | -162.40192 | 36862 ft | 480 kts | 46° |
| 2026-05-08 13:29 | 0.26453 | -162.35308 | 36862 ft | 480 kts | 46° |
| 2026-05-08 13:29 | 0.30973 | -162.30459 | 36862 ft | 480 kts | 46° |
| 2026-05-08 13:30 | 0.35525 | -162.25575 | 36862 ft | 480 kts | 46° |
| 2026-05-08 13:30 | 0.40081 | -162.20688 | 36862 ft | 481 kts | 46° |
| 2026-05-08 13:31 | 0.44637 | -162.15801 | 36862 ft | 481 kts | 46° |
| 2026-05-08 13:31 | 0.49200 | -162.10906 | 36862 ft | 481 kts | 46° |
| 2026-05-08 13:32 | 0.53733 | -162.06042 | 36862 ft | 481 kts | 46° |
| 2026-05-08 13:32 | 0.58294 | -162.01149 | 36862 ft | 481 kts | 46° |
| 2026-05-08 13:33 | 0.62856 | -161.96254 | 36862 ft | 481 kts | 46° |
| 2026-05-08 13:33 | 0.67418 | -161.91360 | 36862 ft | 481 kts | 46° |
| 2026-05-08 13:34 | 0.71983 | -161.86462 | 36862 ft | 482 kts | 46° |
| 2026-05-08 13:34 | 0.76518 | -161.81596 | 36862 ft | 482 kts | 47° |
| 2026-05-08 13:35 | 0.81084 | -161.76696 | 36862 ft | 481 kts | 47° |
| 2026-05-08 13:35 | 0.85647 | -161.71799 | 36862 ft | 481 kts | 47° |
| 2026-05-08 13:36 | 0.90210 | -161.66903 | 36859 ft | 481 kts | 47° |
| 2026-05-08 13:36 | 0.94744 | -161.62037 | 36859 ft | 481 kts | 47° |
| 2026-05-08 13:37 | 0.99308 | -161.57139 | 36859 ft | 481 kts | 47° |
| 2026-05-08 13:37 | 1.03870 | -161.52244 | 36859 ft | 482 kts | 47° |
| 2026-05-08 13:38 | 1.08441 | -161.47338 | 36859 ft | 482 kts | 47° |
| 2026-05-08 13:38 | 1.12980 | -161.42466 | 36859 ft | 481 kts | 47° |
| 2026-05-08 13:39 | 1.17542 | -161.37569 | 36859 ft | 481 kts | 47° |
| 2026-05-08 13:39 | 1.22098 | -161.32678 | 36859 ft | 481 kts | 47° |
| 2026-05-08 13:40 | 1.26660 | -161.27781 | 36859 ft | 481 kts | 47° |
| 2026-05-08 13:40 | 1.31192 | -161.22916 | 36859 ft | 481 kts | 47° |
| 2026-05-08 13:41 | 1.35753 | -161.18018 | 36859 ft | 481 kts | 47° |
| 2026-05-08 13:41 | 1.40315 | -161.13121 | 36859 ft | 481 kts | 47° |
| 2026-05-08 13:42 | 1.44876 | -161.08224 | 36858 ft | 481 kts | 47° |
| 2026-05-08 13:42 | 1.48663 | -161.04157 | 36859 ft | 481 kts | 47° |
| 2026-05-08 13:43 | 1.53951 | -160.98478 | 36859 ft | 480 kts | 47° |
| 2026-05-08 13:43 | 1.58505 | -160.93588 | 36859 ft | 480 kts | 47° |
| 2026-05-08 13:44 | 1.63058 | -160.88698 | 36859 ft | 480 kts | 47° |
| 2026-05-08 13:44 | 1.66844 | -160.84631 | 36860 ft | 481 kts | 47° |
| 2026-05-08 13:45 | 1.72156 | -160.78924 | 36856 ft | 483 kts | 47° |
| 2026-05-08 13:45 | 1.76735 | -160.74005 | 36856 ft | 483 kts | 47° |
| 2026-05-08 13:46 | 1.80539 | -160.69919 | 36855 ft | 483 kts | 47° |
| 2026-05-08 13:46 | 1.85116 | -160.65002 | 36856 ft | 483 kts | 47° |
| 2026-05-08 13:47 | 1.90430 | -160.59292 | 36856 ft | 483 kts | 47° |
| 2026-05-08 13:47 | 1.94262 | -160.55173 | 36856 ft | 483 kts | 47° |
| 2026-05-08 13:48 | 1.98809 | -160.50287 | 36856 ft | 483 kts | 47° |
| 2026-05-08 13:48 | 2.03389 | -160.45365 | 36856 ft | 483 kts | 47° |
| 2026-05-08 13:49 | 2.07964 | -160.40447 | 36856 ft | 483 kts | 47° |
| 2026-05-08 13:49 | 2.12545 | -160.35523 | 36856 ft | 483 kts | 47° |
| 2026-05-08 13:50 | 2.17095 | -160.30631 | 36856 ft | 483 kts | 47° |
| 2026-05-08 13:50 | 2.21675 | -160.25706 | 36856 ft | 484 kts | 47° |
| 2026-05-08 13:51 | 2.26253 | -160.20785 | 36856 ft | 484 kts | 47° |
| 2026-05-08 13:51 | 2.31571 | -160.15065 | 36856 ft | 482 kts | 47° |
| 2026-05-08 13:52 | 2.35361 | -160.10990 | 36857 ft | 481 kts | 47° |
| 2026-05-08 13:52 | 2.39918 | -160.06088 | 36856 ft | 481 kts | 47° |
| 2026-05-08 13:53 | 2.44477 | -160.01184 | 36856 ft | 481 kts | 47° |
| 2026-05-08 13:53 | 2.49031 | -159.96284 | 36856 ft | 481 kts | 47° |
| 2026-05-08 13:54 | 2.53589 | -159.91380 | 36857 ft | 481 kts | 47° |
| 2026-05-08 13:54 | 2.58120 | -159.86505 | 36856 ft | 482 kts | 47° |
| 2026-05-08 13:55 | 2.62675 | -159.81602 | 36856 ft | 480 kts | 47° |
| 2026-05-08 13:56 | 2.69486 | -159.74272 | 36855 ft | 479 kts | 47° |
| 2026-05-08 13:56 | 2.74026 | -159.69384 | 36856 ft | 480 kts | 47° |
| 2026-05-08 13:57 | 2.78537 | -159.64527 | 36857 ft | 480 kts | 47° |
| 2026-05-08 13:57 | 2.83077 | -159.59639 | 36856 ft | 479 kts | 47° |
| 2026-05-08 13:58 | 2.87612 | -159.54755 | 36856 ft | 480 kts | 47° |
| 2026-05-08 13:58 | 2.92162 | -159.49855 | 36856 ft | 481 kts | 47° |
| 2026-05-08 13:59 | 2.96687 | -159.44980 | 36856 ft | 481 kts | 47° |
| 2026-05-08 13:59 | 3.01241 | -159.40074 | 36857 ft | 481 kts | 47° |
| 2026-05-08 14:00 | 3.05794 | -159.35168 | 36856 ft | 481 kts | 47° |
| 2026-05-08 14:00 | 3.10341 | -159.30268 | 36859 ft | 481 kts | 47° |
| 2026-05-08 14:01 | 3.14898 | -159.25357 | 36859 ft | 481 kts | 47° |
| 2026-05-08 14:01 | 3.19416 | -159.20488 | 36856 ft | 481 kts | 47° |
| 2026-05-08 14:02 | 3.23969 | -159.15579 | 36857 ft | 482 kts | 48° |
| 2026-05-08 14:02 | 3.28532 | -159.10658 | 36856 ft | 483 kts | 48° |
| 2026-05-08 14:03 | 3.33101 | -159.05731 | 36856 ft | 483 kts | 48° |
| 2026-05-08 14:03 | 3.37640 | -159.00836 | 36856 ft | 483 kts | 48° |
| 2026-05-08 14:04 | 3.42208 | -158.95908 | 36855 ft | 483 kts | 48° |
| 2026-05-08 14:04 | 3.46772 | -158.90985 | 36857 ft | 483 kts | 48° |
| 2026-05-08 14:05 | 3.51339 | -158.86058 | 36857 ft | 483 kts | 48° |
| 2026-05-08 14:05 | 3.55876 | -158.81160 | 36862 ft | 483 kts | 47° |
| 2026-05-08 14:06 | 3.60445 | -158.76228 | 36857 ft | 483 kts | 47° |
| 2026-05-08 14:06 | 3.65017 | -158.71294 | 36856 ft | 483 kts | 47° |
| 2026-05-08 14:07 | 3.69588 | -158.66358 | 36856 ft | 483 kts | 47° |
| 2026-05-08 14:07 | 3.74159 | -158.61422 | 36856 ft | 483 kts | 47° |
| 2026-05-08 14:08 | 3.78725 | -158.56491 | 36858 ft | 483 kts | 47° |
| 2026-05-08 14:08 | 3.83266 | -158.51586 | 36859 ft | 483 kts | 47° |
| 2026-05-08 14:09 | 3.87836 | -158.46648 | 36863 ft | 483 kts | 47° |
| 2026-05-08 14:09 | 3.92404 | -158.41712 | 36862 ft | 483 kts | 47° |
| 2026-05-08 14:10 | 3.96972 | -158.36775 | 36865 ft | 483 kts | 47° |
| 2026-05-08 14:10 | 4.01510 | -158.31870 | 36865 ft | 483 kts | 47° |
| 2026-05-08 14:11 | 4.06076 | -158.26934 | 36865 ft | 483 kts | 47° |
| 2026-05-08 14:11 | 4.10640 | -158.21998 | 36864 ft | 483 kts | 47° |
| 2026-05-08 14:12 | 4.15207 | -158.17059 | 36863 ft | 483 kts | 47° |
| 2026-05-08 14:12 | 4.19776 | -158.12117 | 36862 ft | 483 kts | 47° |
| 2026-05-08 14:13 | 4.24315 | -158.07205 | 36861 ft | 483 kts | 47° |
| 2026-05-08 14:13 | 4.28878 | -158.02268 | 36864 ft | 483 kts | 47° |
| 2026-05-08 14:14 | 4.33442 | -157.97329 | 36864 ft | 483 kts | 47° |
| 2026-05-08 14:14 | 4.38003 | -157.92391 | 36865 ft | 483 kts | 47° |
| 2026-05-08 14:15 | 4.42565 | -157.87452 | 36867 ft | 483 kts | 47° |
| 2026-05-08 14:15 | 4.47096 | -157.82544 | 36868 ft | 483 kts | 47° |
| 2026-05-08 14:16 | 4.51656 | -157.77605 | 36864 ft | 483 kts | 47° |
| 2026-05-08 14:16 | 4.56217 | -157.72664 | 36864 ft | 483 kts | 47° |
| 2026-05-08 14:17 | 4.60772 | -157.67727 | 36866 ft | 483 kts | 47° |
| 2026-05-08 14:17 | 4.65304 | -157.62816 | 36865 ft | 483 kts | 47° |
| 2026-05-08 14:18 | 4.69866 | -157.57871 | 36866 ft | 483 kts | 47° |
| 2026-05-08 14:18 | 4.74425 | -157.52928 | 36866 ft | 483 kts | 47° |
| 2026-05-08 14:19 | 4.78983 | -157.47985 | 36869 ft | 483 kts | 47° |
| 2026-05-08 14:19 | 4.83517 | -157.43066 | 36868 ft | 483 kts | 47° |
| 2026-05-08 14:20 | 4.88082 | -157.38113 | 36867 ft | 484 kts | 47° |
| 2026-05-08 14:20 | 4.92646 | -157.33160 | 36869 ft | 483 kts | 47° |
| 2026-05-08 14:21 | 4.97215 | -157.28201 | 36868 ft | 484 kts | 47° |
| 2026-05-08 14:21 | 5.01791 | -157.23236 | 36869 ft | 485 kts | 47° |
| 2026-05-08 14:22 | 5.06337 | -157.18310 | 36869 ft | 484 kts | 47° |
| 2026-05-08 14:22 | 5.10910 | -157.13349 | 36869 ft | 484 kts | 47° |
| 2026-05-08 14:23 | 5.15487 | -157.08384 | 36869 ft | 484 kts | 47° |
| 2026-05-08 14:23 | 5.20059 | -157.03424 | 36875 ft | 484 kts | 47° |
| 2026-05-08 14:24 | 5.24597 | -156.98501 | 36869 ft | 484 kts | 47° |
| 2026-05-08 14:24 | 5.29170 | -156.93538 | 36867 ft | 485 kts | 47° |
| 2026-05-08 14:25 | 5.33758 | -156.88558 | 36868 ft | 486 kts | 48° |
| 2026-05-08 14:25 | 5.38347 | -156.83576 | 36871 ft | 485 kts | 48° |
| 2026-05-08 14:26 | 5.42895 | -156.78635 | 36873 ft | 485 kts | 48° |
| 2026-05-08 14:26 | 5.47469 | -156.73666 | 36869 ft | 485 kts | 47° |
| 2026-05-08 14:27 | 5.52045 | -156.68694 | 36870 ft | 485 kts | 48° |
| 2026-05-08 14:27 | 5.56622 | -156.63720 | 36872 ft | 485 kts | 48° |
| 2026-05-08 14:28 | 5.61199 | -156.58744 | 36871 ft | 485 kts | 48° |
| 2026-05-08 14:28 | 5.65751 | -156.53796 | 36869 ft | 486 kts | 48° |
| 2026-05-08 14:29 | 5.70334 | -156.48810 | 36869 ft | 486 kts | 48° |
| 2026-05-08 14:29 | 5.74916 | -156.43822 | 36871 ft | 486 kts | 48° |
| 2026-05-08 14:30 | 5.79493 | -156.38840 | 36870 ft | 486 kts | 48° |
| 2026-05-08 14:30 | 5.84043 | -156.33887 | 36872 ft | 485 kts | 48° |
| 2026-05-08 14:31 | 5.88621 | -156.28903 | 36875 ft | 485 kts | 48° |
| 2026-05-08 14:31 | 5.93200 | -156.23917 | 36872 ft | 486 kts | 48° |
| 2026-05-08 14:32 | 6.00078 | -156.16423 | 36871 ft | 487 kts | 48° |
| 2026-05-08 14:32 | 6.04644 | -156.11448 | 36871 ft | 487 kts | 48° |
| 2026-05-08 14:33 | 6.09239 | -156.06440 | 36869 ft | 487 kts | 47° |
| 2026-05-08 14:33 | 6.13828 | -156.01437 | 36869 ft | 487 kts | 48° |
| 2026-05-08 14:34 | 6.18420 | -155.96427 | 36874 ft | 487 kts | 48° |
| 2026-05-08 14:34 | 6.22982 | -155.91450 | 36873 ft | 487 kts | 48° |
| 2026-05-08 14:35 | 6.27572 | -155.86440 | 36873 ft | 488 kts | 48° |
| 2026-05-08 14:35 | 6.32175 | -155.81415 | 36874 ft | 489 kts | 48° |
| 2026-05-08 14:36 | 6.36780 | -155.76386 | 36871 ft | 490 kts | 48° |
| 2026-05-08 14:36 | 6.41391 | -155.71352 | 36869 ft | 489 kts | 48° |
| 2026-05-08 14:37 | 6.45968 | -155.66349 | 36869 ft | 489 kts | 48° |
| 2026-05-08 14:37 | 6.50578 | -155.61311 | 36868 ft | 489 kts | 48° |
| 2026-05-08 14:38 | 6.55193 | -155.56266 | 36873 ft | 491 kts | 47° |
| 2026-05-08 14:38 | 6.59818 | -155.51209 | 36870 ft | 490 kts | 48° |
| 2026-05-08 14:39 | 6.64389 | -155.46210 | 36878 ft | 488 kts | 48° |
| 2026-05-08 14:39 | 6.68986 | -155.41180 | 36877 ft | 488 kts | 48° |
| 2026-05-08 14:40 | 6.73580 | -155.36150 | 36874 ft | 488 kts | 48° |
| 2026-05-08 14:40 | 6.78144 | -155.31154 | 36874 ft | 488 kts | 48° |
| 2026-05-08 14:41 | 6.82742 | -155.26120 | 36877 ft | 489 kts | 48° |
| 2026-05-08 14:41 | 6.87361 | -155.21061 | 36875 ft | 492 kts | 47° |
| 2026-05-08 14:42 | 6.91987 | -155.15990 | 36875 ft | 492 kts | 48° |
| 2026-05-08 14:42 | 6.96609 | -155.10924 | 36879 ft | 492 kts | 48° |
| 2026-05-08 14:43 | 7.01204 | -155.05885 | 36879 ft | 492 kts | 48° |
| 2026-05-08 14:43 | 7.05830 | -155.00811 | 36877 ft | 492 kts | 48° |
| 2026-05-08 14:44 | 7.10454 | -154.95738 | 36878 ft | 492 kts | 48° |
| 2026-05-08 14:44 | 7.15089 | -154.90651 | 36879 ft | 493 kts | 48° |
| 2026-05-08 14:45 | 7.19698 | -154.85591 | 36880 ft | 493 kts | 48° |
| 2026-05-08 14:45 | 7.24332 | -154.80501 | 36880 ft | 493 kts | 48° |
| 2026-05-08 14:46 | 7.28971 | -154.75404 | 36881 ft | 493 kts | 48° |
| 2026-05-08 14:46 | 7.33609 | -154.70306 | 36881 ft | 493 kts | 48° |
| 2026-05-08 14:47 | 7.38217 | -154.65241 | 36880 ft | 493 kts | 48° |
| 2026-05-08 14:47 | 7.42854 | -154.60142 | 36882 ft | 493 kts | 48° |
| 2026-05-08 14:48 | 7.47486 | -154.55047 | 36881 ft | 494 kts | 48° |
| 2026-05-08 14:48 | 7.52128 | -154.49940 | 36880 ft | 493 kts | 48° |
| 2026-05-08 14:49 | 7.56730 | -154.44875 | 36887 ft | 494 kts | 48° |
| 2026-05-08 14:49 | 7.61375 | -154.39760 | 36887 ft | 495 kts | 48° |
| 2026-05-08 14:50 | 7.66022 | -154.34638 | 36885 ft | 495 kts | 48° |
| 2026-05-08 14:50 | 7.70668 | -154.29517 | 36887 ft | 495 kts | 48° |
| 2026-05-08 14:51 | 7.75312 | -154.24399 | 36890 ft | 494 kts | 48° |
| 2026-05-08 14:51 | 7.79919 | -154.19319 | 36889 ft | 494 kts | 48° |
| 2026-05-08 14:52 | 7.86884 | -154.11634 | 36889 ft | 495 kts | 48° |
| 2026-05-08 14:53 | 7.91527 | -154.06510 | 36891 ft | 496 kts | 48° |
| 2026-05-08 14:53 | 7.96148 | -154.01409 | 36892 ft | 495 kts | 48° |
| 2026-05-08 14:54 | 8.00790 | -153.96281 | 36889 ft | 495 kts | 48° |
| 2026-05-08 14:54 | 8.05429 | -153.91155 | 36889 ft | 494 kts | 48° |
| 2026-05-08 14:55 | 8.10035 | -153.86063 | 36890 ft | 495 kts | 48° |
| 2026-05-08 14:55 | 8.14676 | -153.80935 | 36889 ft | 495 kts | 48° |
| 2026-05-08 14:56 | 8.19313 | -153.75801 | 36896 ft | 495 kts | 48° |
| 2026-05-08 14:56 | 8.23958 | -153.70651 | 36895 ft | 498 kts | 48° |
| 2026-05-08 14:57 | 8.28592 | -153.65512 | 36894 ft | 498 kts | 48° |
| 2026-05-08 14:57 | 8.33259 | -153.60336 | 36897 ft | 498 kts | 48° |
| 2026-05-08 14:58 | 8.37926 | -153.55160 | 36897 ft | 498 kts | 48° |
| 2026-05-08 14:58 | 8.42591 | -153.49983 | 36897 ft | 498 kts | 48° |
| 2026-05-08 14:59 | 8.47225 | -153.44840 | 36897 ft | 498 kts | 48° |
| 2026-05-08 14:59 | 8.54215 | -153.37075 | 36900 ft | 498 kts | 47° |
| 2026-05-08 15:00 | 8.58876 | -153.31896 | 36903 ft | 498 kts | 47° |
| 2026-05-08 15:00 | 8.63538 | -153.26714 | 36903 ft | 498 kts | 47° |
| 2026-05-08 15:01 | 8.68168 | -153.21564 | 36903 ft | 498 kts | 47° |
| 2026-05-08 15:01 | 8.72822 | -153.16387 | 36903 ft | 498 kts | 47° |
| 2026-05-08 15:02 | 8.77481 | -153.11202 | 36903 ft | 498 kts | 48° |
| 2026-05-08 15:02 | 8.82143 | -153.06009 | 36905 ft | 499 kts | 47° |
| 2026-05-08 15:03 | 8.86774 | -153.00850 | 36908 ft | 498 kts | 47° |
| 2026-05-08 15:03 | 8.91434 | -152.95659 | 36911 ft | 498 kts | 47° |
| 2026-05-08 15:04 | 8.96093 | -152.90466 | 36908 ft | 498 kts | 47° |
| 2026-05-08 15:04 | 9.00750 | -152.85271 | 36908 ft | 498 kts | 47° |
| 2026-05-08 15:05 | 9.05373 | -152.80114 | 36912 ft | 499 kts | 47° |
| 2026-05-08 15:05 | 9.10039 | -152.74906 | 36910 ft | 500 kts | 47° |
| 2026-05-08 15:06 | 9.14712 | -152.69689 | 36911 ft | 500 kts | 47° |
| 2026-05-08 15:06 | 9.19388 | -152.64466 | 36912 ft | 501 kts | 47° |
| 2026-05-08 15:07 | 9.24032 | -152.59275 | 36913 ft | 501 kts | 47° |
| 2026-05-08 15:07 | 9.28706 | -152.54049 | 36911 ft | 501 kts | 47° |
| 2026-05-08 15:08 | 9.32591 | -152.49704 | 36915 ft | 501 kts | 47° |
| 2026-05-08 15:08 | 9.38062 | -152.43582 | 36913 ft | 502 kts | 47° |
| 2026-05-08 15:09 | 9.42710 | -152.38377 | 36916 ft | 503 kts | 47° |
| 2026-05-08 15:09 | 9.47404 | -152.33120 | 36912 ft | 503 kts | 47° |
| 2026-05-08 15:10 | 9.52098 | -152.27860 | 36917 ft | 503 kts | 47° |
| 2026-05-08 15:10 | 9.56794 | -152.22596 | 36917 ft | 503 kts | 47° |
| 2026-05-08 15:11 | 9.61457 | -152.17368 | 36916 ft | 503 kts | 46° |
| 2026-05-08 15:11 | 9.66144 | -152.12108 | 36920 ft | 503 kts | 47° |
| 2026-05-08 15:12 | 9.70832 | -152.06845 | 36923 ft | 503 kts | 46° |
| 2026-05-08 15:12 | 9.75531 | -152.01568 | 36924 ft | 505 kts | 46° |
| 2026-05-08 15:13 | 9.80207 | -151.96314 | 36923 ft | 505 kts | 47° |
| 2026-05-08 15:13 | 9.84912 | -151.91026 | 36918 ft | 505 kts | 47° |
| 2026-05-08 15:14 | 9.89605 | -151.85748 | 36926 ft | 503 kts | 47° |
| 2026-05-08 15:14 | 9.94288 | -151.80481 | 36926 ft | 503 kts | 47° |
| 2026-05-08 15:15 | 9.98939 | -151.75248 | 36926 ft | 503 kts | 46° |
| 2026-05-08 15:15 | 10.03620 | -151.69977 | 36932 ft | 505 kts | 47° |
| 2026-05-08 15:16 | 10.08329 | -151.64670 | 36926 ft | 506 kts | 47° |
| 2026-05-08 15:16 | 10.13041 | -151.59360 | 36928 ft | 506 kts | 47° |
| 2026-05-08 15:17 | 10.17718 | -151.54087 | 36929 ft | 506 kts | 47° |
| 2026-05-08 15:17 | 10.22423 | -151.48780 | 36927 ft | 505 kts | 46° |
| 2026-05-08 15:18 | 10.27126 | -151.43469 | 36935 ft | 506 kts | 47° |
| 2026-05-08 15:18 | 10.31833 | -151.38155 | 36931 ft | 506 kts | 47° |
| 2026-05-08 15:19 | 10.36508 | -151.32872 | 36936 ft | 506 kts | 47° |
| 2026-05-08 15:19 | 10.41206 | -151.27560 | 36938 ft | 506 kts | 47° |
| 2026-05-08 15:20 | 10.45903 | -151.22248 | 36931 ft | 505 kts | 46° |
| 2026-05-08 15:20 | 10.50599 | -151.16937 | 36937 ft | 505 kts | 47° |
| 2026-05-08 15:21 | 10.55261 | -151.11658 | 36938 ft | 505 kts | 47° |
| 2026-05-08 15:21 | 10.59957 | -151.06340 | 36940 ft | 506 kts | 47° |
| 2026-05-08 15:22 | 10.64671 | -151.00996 | 36940 ft | 509 kts | 47° |
| 2026-05-08 15:22 | 10.69397 | -150.95639 | 36938 ft | 508 kts | 46° |
| 2026-05-08 15:23 | 10.74117 | -150.90286 | 36942 ft | 508 kts | 47° |
| 2026-05-08 15:23 | 10.78800 | -150.84971 | 36939 ft | 508 kts | 47° |
| 2026-05-08 15:24 | 10.83516 | -150.79617 | 36941 ft | 508 kts | 47° |
| 2026-05-08 15:24 | 10.88232 | -150.74259 | 36941 ft | 509 kts | 47° |
| 2026-05-08 15:25 | 10.92965 | -150.68878 | 36944 ft | 511 kts | 46° |
| 2026-05-08 15:25 | 10.97673 | -150.63525 | 36945 ft | 511 kts | 47° |
| 2026-05-08 15:26 | 11.02414 | -150.58129 | 36942 ft | 511 kts | 47° |
| 2026-05-08 15:26 | 11.07150 | -150.52738 | 36945 ft | 511 kts | 47° |
| 2026-05-08 15:27 | 11.11887 | -150.47344 | 36945 ft | 511 kts | 47° |
| 2026-05-08 15:27 | 11.16592 | -150.41982 | 36951 ft | 511 kts | 47° |
| 2026-05-08 15:28 | 11.21327 | -150.36584 | 36945 ft | 511 kts | 47° |
| 2026-05-08 15:28 | 11.26063 | -150.31180 | 36943 ft | 511 kts | 47° |
| 2026-05-08 15:29 | 11.30799 | -150.25775 | 36951 ft | 511 kts | 47° |
| 2026-05-08 15:29 | 11.35533 | -150.20369 | 36948 ft | 511 kts | 47° |
| 2026-05-08 15:30 | 11.40230 | -150.15002 | 36954 ft | 511 kts | 47° |
| 2026-05-08 15:30 | 11.44963 | -150.09589 | 36954 ft | 512 kts | 47° |
| 2026-05-08 15:31 | 11.49694 | -150.04177 | 36950 ft | 511 kts | 47° |
| 2026-05-08 15:31 | 11.54390 | -149.98805 | 36950 ft | 511 kts | 47° |
| 2026-05-08 15:32 | 11.59114 | -149.93393 | 36948 ft | 511 kts | 47° |
| 2026-05-08 15:32 | 11.63830 | -149.87981 | 36950 ft | 511 kts | 47° |
| 2026-05-08 15:33 | 11.68552 | -149.82560 | 36952 ft | 511 kts | 47° |
| 2026-05-08 15:33 | 11.73284 | -149.77125 | 36957 ft | 512 kts | 46° |
| 2026-05-08 15:34 | 11.77972 | -149.71739 | 36957 ft | 511 kts | 47° |
| 2026-05-08 15:34 | 11.82694 | -149.66312 | 36952 ft | 511 kts | 47° |
| 2026-05-08 15:35 | 11.87414 | -149.60883 | 36957 ft | 511 kts | 47° |
| 2026-05-08 15:35 | 11.92136 | -149.55449 | 36954 ft | 512 kts | 47° |
| 2026-05-08 15:36 | 11.96064 | -149.50926 | 36959 ft | 512 kts | 47° |
| 2026-05-08 15:36 | 12.01560 | -149.44594 | 36959 ft | 513 kts | 46° |
| 2026-05-08 15:37 | 12.06294 | -149.39137 | 36960 ft | 513 kts | 46° |
| 2026-05-08 15:37 | 12.11025 | -149.33681 | 36961 ft | 513 kts | 47° |
| 2026-05-08 15:38 | 12.15759 | -149.28217 | 36958 ft | 513 kts | 47° |
| 2026-05-08 15:38 | 12.20458 | -149.22791 | 36957 ft | 513 kts | 47° |
| 2026-05-08 15:39 | 12.25187 | -149.17326 | 36958 ft | 513 kts | 47° |
| 2026-05-08 15:39 | 12.29917 | -149.11857 | 36962 ft | 514 kts | 46° |
| 2026-05-08 15:40 | 12.34668 | -149.06362 | 36962 ft | 516 kts | 46° |
| 2026-05-08 15:40 | 12.39395 | -149.00891 | 36962 ft | 516 kts | 46° |
| 2026-05-08 15:41 | 12.44147 | -148.95387 | 36967 ft | 516 kts | 46° |
| 2026-05-08 15:41 | 12.48892 | -148.89888 | 36966 ft | 516 kts | 46° |
| 2026-05-08 15:42 | 12.53640 | -148.84382 | 36965 ft | 516 kts | 47° |
| 2026-05-08 15:42 | 12.58393 | -148.78867 | 36967 ft | 517 kts | 46° |
| 2026-05-08 15:43 | 12.63129 | -148.73370 | 36969 ft | 518 kts | 46° |
| 2026-05-08 15:43 | 12.67899 | -148.67828 | 36968 ft | 519 kts | 46° |
| 2026-05-08 15:44 | 12.72667 | -148.62285 | 36968 ft | 518 kts | 46° |
| 2026-05-08 15:44 | 12.77403 | -148.56776 | 36968 ft | 518 kts | 46° |
| 2026-05-08 15:45 | 12.82169 | -148.51230 | 36978 ft | 519 kts | 46° |
| 2026-05-08 15:45 | 12.86939 | -148.45674 | 36968 ft | 520 kts | 46° |
| 2026-05-08 15:46 | 12.91711 | -148.40114 | 36971 ft | 520 kts | 46° |
| 2026-05-08 15:46 | 12.96487 | -148.34545 | 36972 ft | 520 kts | 46° |
| 2026-05-08 15:47 | 13.01231 | -148.29010 | 36971 ft | 520 kts | 46° |
| 2026-05-08 15:47 | 13.06005 | -148.23436 | 36971 ft | 520 kts | 46° |
| 2026-05-08 15:48 | 13.13167 | -148.15068 | 36975 ft | 520 kts | 46° |
| 2026-05-08 15:49 | 13.17904 | -148.09528 | 36973 ft | 520 kts | 46° |
| 2026-05-08 15:49 | 13.22677 | -148.03943 | 36974 ft | 520 kts | 46° |
| 2026-05-08 15:50 | 13.27449 | -147.98356 | 36977 ft | 520 kts | 46° |
| 2026-05-08 15:50 | 13.32220 | -147.92766 | 36977 ft | 520 kts | 46° |
| 2026-05-08 15:51 | 13.36990 | -147.87173 | 36978 ft | 521 kts | 46° |
| 2026-05-08 15:51 | 13.41745 | -147.81596 | 36976 ft | 523 kts | 46° |
| 2026-05-08 15:52 | 13.46537 | -147.75970 | 36982 ft | 523 kts | 46° |
| 2026-05-08 15:52 | 13.51323 | -147.70347 | 36982 ft | 523 kts | 46° |
| 2026-05-08 15:53 | 13.56118 | -147.64710 | 36982 ft | 523 kts | 46° |
| 2026-05-08 15:53 | 13.60901 | -147.59085 | 36994 ft | 523 kts | 46° |
| 2026-05-08 15:54 | 13.65663 | -147.53480 | 36988 ft | 525 kts | 46° |
| 2026-05-08 15:54 | 13.70467 | -147.47821 | 36987 ft | 525 kts | 46° |
| 2026-05-08 15:55 | 13.75272 | -147.42157 | 36984 ft | 525 kts | 46° |
| 2026-05-08 15:55 | 13.82443 | -147.33698 | 36988 ft | 526 kts | 46° |
| 2026-05-08 15:56 | 13.87249 | -147.28024 | 36998 ft | 526 kts | 45° |
| 2026-05-08 15:56 | 13.92056 | -147.22345 | 36989 ft | 526 kts | 45° |
| 2026-05-08 15:57 | 13.96865 | -147.16659 | 36997 ft | 527 kts | 45° |
| 2026-05-08 15:57 | 14.01674 | -147.10970 | 36999 ft | 526 kts | 45° |
| 2026-05-08 15:58 | 14.06484 | -147.05275 | 36997 ft | 527 kts | 45° |
| 2026-05-08 15:58 | 14.11259 | -146.99617 | 36995 ft | 527 kts | 45° |
| 2026-05-08 15:59 | 14.16071 | -146.93912 | 36997 ft | 528 kts | 45° |
| 2026-05-08 15:59 | 14.20885 | -146.88201 | 36996 ft | 528 kts | 45° |
| 2026-05-08 16:00 | 14.25665 | -146.82526 | 37000 ft | 528 kts | 45° |
| 2026-05-08 16:00 | 14.30481 | -146.76805 | 36999 ft | 528 kts | 45° |
| 2026-05-08 16:01 | 14.35298 | -146.71078 | 37003 ft | 528 kts | 45° |
| 2026-05-08 16:01 | 14.40113 | -146.65348 | 37007 ft | 528 kts | 45° |
| 2026-05-08 16:02 | 14.44893 | -146.59658 | 37005 ft | 529 kts | 45° |
| 2026-05-08 16:02 | 14.49709 | -146.53919 | 37007 ft | 529 kts | 45° |
| 2026-05-08 16:03 | 14.54526 | -146.48176 | 37006 ft | 529 kts | 45° |
| 2026-05-08 16:03 | 14.59342 | -146.42429 | 37010 ft | 529 kts | 45° |
| 2026-05-08 16:04 | 14.64156 | -146.36681 | 37015 ft | 529 kts | 45° |
| 2026-05-08 16:04 | 14.68943 | -146.30961 | 37013 ft | 530 kts | 45° |
| 2026-05-08 16:05 | 14.73766 | -146.25194 | 37006 ft | 531 kts | 45° |
| 2026-05-08 16:05 | 14.78591 | -146.19420 | 37011 ft | 531 kts | 45° |
| 2026-05-08 16:06 | 14.83415 | -146.13642 | 37011 ft | 531 kts | 45° |
| 2026-05-08 16:06 | 14.88205 | -146.07901 | 37032 ft | 531 kts | 45° |
| 2026-05-08 16:07 | 14.93022 | -146.02126 | 37015 ft | 531 kts | 45° |
| 2026-05-08 16:07 | 14.97841 | -145.96340 | 37016 ft | 531 kts | 45° |
| 2026-05-08 16:08 | 15.02659 | -145.90552 | 37018 ft | 531 kts | 45° |
| 2026-05-08 16:08 | 15.07444 | -145.84799 | 37018 ft | 531 kts | 45° |
| 2026-05-08 16:09 | 15.11477 | -145.79948 | 37025 ft | 531 kts | 45° |
| 2026-05-08 16:09 | 15.17075 | -145.73209 | 37012 ft | 531 kts | 44° |
| 2026-05-08 16:10 | 15.21893 | -145.67405 | 37028 ft | 532 kts | 44° |
| 2026-05-08 16:10 | 15.26681 | -145.61632 | 37013 ft | 532 kts | 44° |
| 2026-05-08 16:11 | 15.31492 | -145.55826 | 37031 ft | 532 kts | 44° |
| 2026-05-08 16:11 | 15.36307 | -145.50011 | 37036 ft | 532 kts | 45° |
| 2026-05-08 16:12 | 15.41128 | -145.44185 | 37018 ft | 533 kts | 44° |
| 2026-05-08 16:12 | 15.45948 | -145.38355 | 37021 ft | 533 kts | 44° |
| 2026-05-08 16:13 | 15.50737 | -145.32558 | 37026 ft | 533 kts | 44° |
| 2026-05-08 16:13 | 15.55554 | -145.26722 | 37024 ft | 533 kts | 44° |
| 2026-05-08 16:14 | 15.60376 | -145.20878 | 37024 ft | 534 kts | 44° |
| 2026-05-08 16:14 | 15.65205 | -145.15019 | 37028 ft | 534 kts | 44° |
| 2026-05-08 16:15 | 15.70002 | -145.09194 | 37024 ft | 534 kts | 44° |
| 2026-05-08 16:15 | 15.74822 | -145.03336 | 37032 ft | 534 kts | 44° |
| 2026-05-08 16:16 | 15.79647 | -144.97468 | 37034 ft | 535 kts | 45° |
| 2026-05-08 16:16 | 15.84480 | -144.91586 | 37042 ft | 536 kts | 44° |
| 2026-05-08 16:17 | 15.88495 | -144.86694 | 37032 ft | 535 kts | 44° |
| 2026-05-08 16:17 | 15.94111 | -144.79848 | 37034 ft | 535 kts | 44° |
| 2026-05-08 16:18 | 15.98939 | -144.73958 | 37029 ft | 535 kts | 44° |
| 2026-05-08 16:18 | 16.03773 | -144.68056 | 37033 ft | 536 kts | 44° |
| 2026-05-08 16:19 | 16.08610 | -144.62144 | 37045 ft | 537 kts | 44° |
| 2026-05-08 16:19 | 16.13445 | -144.56230 | 37036 ft | 537 kts | 44° |
| 2026-05-08 16:20 | 16.18255 | -144.50342 | 37035 ft | 537 kts | 44° |
| 2026-05-08 16:20 | 16.23097 | -144.44410 | 37034 ft | 538 kts | 44° |
| 2026-05-08 16:21 | 16.27946 | -144.38465 | 37034 ft | 539 kts | 44° |
| 2026-05-08 16:21 | 16.32793 | -144.32515 | 37042 ft | 539 kts | 44° |
| 2026-05-08 16:22 | 16.36824 | -144.27565 | 37042 ft | 539 kts | 44° |
| 2026-05-08 16:22 | 16.42461 | -144.20637 | 37045 ft | 540 kts | 44° |
| 2026-05-08 16:23 | 16.47314 | -144.14666 | 37044 ft | 540 kts | 44° |
| 2026-05-08 16:23 | 16.52166 | -144.08690 | 37042 ft | 540 kts | 44° |
| 2026-05-08 16:24 | 16.56987 | -144.02749 | 37049 ft | 541 kts | 44° |
| 2026-05-08 16:24 | 16.61850 | -143.96754 | 37043 ft | 542 kts | 44° |
| 2026-05-08 16:25 | 16.66715 | -143.90747 | 37046 ft | 542 kts | 44° |
| 2026-05-08 16:25 | 16.71580 | -143.84735 | 37047 ft | 542 kts | 44° |
| 2026-05-08 16:26 | 16.76411 | -143.78761 | 37065 ft | 542 kts | 44° |
| 2026-05-08 16:26 | 16.81269 | -143.72748 | 37044 ft | 543 kts | 45° |
| 2026-05-08 16:27 | 16.86140 | -143.66715 | 37041 ft | 544 kts | 45° |
| 2026-05-08 16:27 | 16.91012 | -143.60673 | 37048 ft | 544 kts | 45° |
| 2026-05-08 16:28 | 16.95883 | -143.54628 | 37058 ft | 544 kts | 45° |
| 2026-05-08 16:28 | 17.00720 | -143.48620 | 37053 ft | 544 kts | 44° |
| 2026-05-08 16:29 | 17.05590 | -143.42565 | 37053 ft | 544 kts | 44° |
| 2026-05-08 16:29 | 17.10459 | -143.36507 | 37053 ft | 544 kts | 45° |
| 2026-05-08 16:30 | 17.15327 | -143.30444 | 37057 ft | 544 kts | 45° |
| 2026-05-08 16:30 | 17.20156 | -143.24425 | 37054 ft | 544 kts | 45° |
| 2026-05-08 16:31 | 17.25022 | -143.18354 | 37058 ft | 545 kts | 45° |
| 2026-05-08 16:31 | 17.29888 | -143.12278 | 37065 ft | 545 kts | 45° |
| 2026-05-08 16:32 | 17.34752 | -143.06198 | 37064 ft | 545 kts | 45° |
| 2026-05-08 16:32 | 17.39584 | -143.00153 | 37061 ft | 545 kts | 45° |
| 2026-05-08 16:33 | 17.44449 | -142.94062 | 37073 ft | 545 kts | 45° |
| 2026-05-08 16:33 | 17.49310 | -142.87969 | 37069 ft | 545 kts | 45° |
| 2026-05-08 16:34 | 17.54178 | -142.81862 | 37067 ft | 545 kts | 45° |
| 2026-05-08 16:34 | 17.59004 | -142.75803 | 37062 ft | 545 kts | 45° |
| 2026-05-08 16:35 | 17.63865 | -142.69694 | 37069 ft | 546 kts | 45° |
| 2026-05-08 16:35 | 17.68721 | -142.63585 | 37071 ft | 546 kts | 45° |
| 2026-05-08 16:36 | 17.73585 | -142.57461 | 37072 ft | 546 kts | 45° |
| 2026-05-08 16:36 | 17.78436 | -142.51348 | 37062 ft | 546 kts | 45° |
| 2026-05-08 16:37 | 17.83262 | -142.45260 | 37072 ft | 546 kts | 45° |
| 2026-05-08 16:37 | 17.88121 | -142.39125 | 37072 ft | 546 kts | 45° |
| 2026-05-08 16:38 | 17.92979 | -142.32985 | 37075 ft | 546 kts | 45° |
| 2026-05-08 16:38 | 17.97015 | -142.27880 | 37080 ft | 547 kts | 45° |
| 2026-05-08 16:39 | 18.02662 | -142.20731 | 37080 ft | 547 kts | 45° |
| 2026-05-08 16:39 | 18.07520 | -142.14573 | 37099 ft | 547 kts | 45° |
| 2026-05-08 16:40 | 18.12377 | -142.08412 | 37081 ft | 547 kts | 45° |
| 2026-05-08 16:40 | 18.16410 | -142.03291 | 37079 ft | 547 kts | 45° |
| 2026-05-08 16:41 | 18.22049 | -141.96123 | 37087 ft | 548 kts | 45° |
| 2026-05-08 16:42 | 18.29332 | -141.86856 | 37104 ft | 548 kts | 45° |
| 2026-05-08 16:42 | 18.33362 | -141.81721 | 37086 ft | 547 kts | 45° |
| 2026-05-08 16:43 | 18.38212 | -141.75537 | 37087 ft | 548 kts | 46° |
| 2026-05-08 16:43 | 18.43063 | -141.69345 | 37088 ft | 548 kts | 46° |
| 2026-05-08 16:44 | 18.47907 | -141.63156 | 37087 ft | 548 kts | 46° |
| 2026-05-08 16:44 | 18.52722 | -141.56998 | 37094 ft | 548 kts | 46° |
| 2026-05-08 16:45 | 18.57566 | -141.50797 | 37092 ft | 548 kts | 46° |
| 2026-05-08 16:45 | 18.62411 | -141.44589 | 37091 ft | 548 kts | 46° |
| 2026-05-08 16:46 | 18.67255 | -141.38375 | 37093 ft | 548 kts | 46° |
| 2026-05-08 16:46 | 18.72064 | -141.32200 | 37085 ft | 548 kts | 46° |
| 2026-05-08 16:47 | 18.76905 | -141.25979 | 37089 ft | 548 kts | 46° |
| 2026-05-08 16:47 | 18.81738 | -141.19761 | 37089 ft | 549 kts | 46° |
| 2026-05-08 16:48 | 18.86576 | -141.13530 | 37089 ft | 549 kts | 46° |
| 2026-05-08 16:48 | 18.91381 | -141.07336 | 37098 ft | 549 kts | 46° |
| 2026-05-08 16:49 | 18.96209 | -141.01106 | 37096 ft | 548 kts | 46° |
| 2026-05-08 16:49 | 19.01032 | -140.94876 | 37091 ft | 547 kts | 46° |
| 2026-05-08 16:50 | 19.05852 | -140.88644 | 37092 ft | 548 kts | 46° |
| 2026-05-08 16:50 | 19.10641 | -140.82446 | 37109 ft | 548 kts | 46° |
| 2026-05-08 16:51 | 19.15455 | -140.76208 | 37095 ft | 547 kts | 46° |
| 2026-05-08 16:51 | 19.20258 | -140.69979 | 37094 ft | 547 kts | 46° |
| 2026-05-08 16:52 | 19.25064 | -140.63740 | 37094 ft | 547 kts | 46° |
| 2026-05-08 16:52 | 19.29872 | -140.57492 | 37101 ft | 548 kts | 46° |
| 2026-05-08 16:53 | 19.37038 | -140.48165 | 37097 ft | 545 kts | 46° |
| 2026-05-08 16:53 | 19.41818 | -140.41938 | 37097 ft | 545 kts | 46° |
| 2026-05-08 16:54 | 19.46603 | -140.35697 | 37105 ft | 546 kts | 46° |
| 2026-05-08 16:54 | 19.51390 | -140.29448 | 37108 ft | 545 kts | 46° |
| 2026-05-08 16:55 | 19.56126 | -140.23256 | 37109 ft | 543 kts | 46° |
| 2026-05-08 16:55 | 19.60881 | -140.17034 | 37110 ft | 543 kts | 46° |
| 2026-05-08 16:56 | 19.65638 | -140.10805 | 37108 ft | 543 kts | 46° |
| 2026-05-08 16:56 | 19.70395 | -140.04570 | 37109 ft | 543 kts | 47° |
| 2026-05-08 16:57 | 19.75118 | -139.98368 | 37112 ft | 538 kts | 47° |
| 2026-05-08 16:57 | 19.79783 | -139.92239 | 37120 ft | 539 kts | 47° |
| 2026-05-08 16:58 | 19.84498 | -139.86041 | 37119 ft | 540 kts | 47° |
| 2026-05-08 16:58 | 19.89215 | -139.79831 | 37105 ft | 540 kts | 47° |
| 2026-05-08 16:59 | 19.93897 | -139.73659 | 37113 ft | 540 kts | 47° |
| 2026-05-08 16:59 | 19.98617 | -139.67433 | 37111 ft | 541 kts | 47° |
| 2026-05-08 17:00 | 20.03342 | -139.61193 | 37117 ft | 542 kts | 47° |
| 2026-05-08 17:00 | 20.08067 | -139.54945 | 37118 ft | 542 kts | 47° |
| 2026-05-08 17:01 | 20.12730 | -139.48770 | 37115 ft | 536 kts | 47° |
| 2026-05-08 17:01 | 20.17394 | -139.42590 | 37116 ft | 536 kts | 47° |
| 2026-05-08 17:02 | 20.22064 | -139.36399 | 37118 ft | 536 kts | 47° |
| 2026-05-08 17:02 | 20.26734 | -139.30204 | 37121 ft | 536 kts | 48° |
| 2026-05-08 17:03 | 20.31380 | -139.24023 | 37128 ft | 533 kts | 48° |
| 2026-05-08 17:03 | 20.35975 | -139.17903 | 37130 ft | 532 kts | 48° |
| 2026-05-08 17:04 | 20.40599 | -139.11743 | 37128 ft | 532 kts | 48° |
| 2026-05-08 17:04 | 20.45222 | -139.05579 | 37136 ft | 532 kts | 48° |
| 2026-05-08 17:05 | 20.49835 | -138.99419 | 37126 ft | 531 kts | 48° |
| 2026-05-08 17:05 | 20.54436 | -138.93269 | 37130 ft | 530 kts | 48° |
| 2026-05-08 17:06 | 20.58999 | -138.87165 | 37127 ft | 530 kts | 48° |
| 2026-05-08 17:06 | 20.63594 | -138.81010 | 37138 ft | 530 kts | 49° |
| 2026-05-08 17:07 | 20.68170 | -138.74874 | 37135 ft | 527 kts | 49° |
| 2026-05-08 17:07 | 20.72729 | -138.68754 | 37136 ft | 526 kts | 49° |
| 2026-05-08 17:08 | 20.77255 | -138.62673 | 37137 ft | 527 kts | 49° |
| 2026-05-08 17:08 | 20.81817 | -138.56536 | 37146 ft | 527 kts | 49° |
| 2026-05-08 17:09 | 20.86365 | -138.50411 | 37141 ft | 525 kts | 49° |
| 2026-05-08 17:09 | 20.90899 | -138.44297 | 37144 ft | 524 kts | 49° |
| 2026-05-08 17:10 | 20.95399 | -138.38225 | 37141 ft | 525 kts | 49° |
| 2026-05-08 17:10 | 20.99935 | -138.32098 | 37144 ft | 525 kts | 49° |
| 2026-05-08 17:11 | 21.04448 | -138.25991 | 37144 ft | 522 kts | 49° |
| 2026-05-08 17:11 | 21.08947 | -138.19899 | 37145 ft | 522 kts | 49° |
| 2026-05-08 17:12 | 21.13425 | -138.13832 | 37145 ft | 523 kts | 49° |
| 2026-05-08 17:12 | 21.17934 | -138.07713 | 37151 ft | 522 kts | 50° |
| 2026-05-08 17:13 | 21.22415 | -138.01625 | 37148 ft | 519 kts | 50° |
| 2026-05-08 17:13 | 21.26884 | -137.95547 | 37148 ft | 520 kts | 49° |
| 2026-05-08 17:14 | 21.31360 | -137.89454 | 37152 ft | 520 kts | 49° |
| 2026-05-08 17:14 | 21.35805 | -137.83396 | 37151 ft | 519 kts | 50° |
| 2026-05-08 17:15 | 21.40251 | -137.77328 | 37154 ft | 517 kts | 50° |
| 2026-05-08 17:15 | 21.44700 | -137.71252 | 37160 ft | 518 kts | 50° |
| 2026-05-08 17:16 | 21.49150 | -137.65168 | 37157 ft | 518 kts | 50° |
| 2026-05-08 17:16 | 21.53565 | -137.59124 | 37146 ft | 516 kts | 50° |
| 2026-05-08 17:17 | 21.57992 | -137.53056 | 37159 ft | 516 kts | 50° |
| 2026-05-08 17:17 | 21.62422 | -137.46979 | 37158 ft | 517 kts | 50° |
| 2026-05-08 17:18 | 21.66846 | -137.40902 | 37158 ft | 517 kts | 50° |
| 2026-05-08 17:18 | 21.71279 | -137.34807 | 37163 ft | 517 kts | 50° |
| 2026-05-08 17:19 | 21.75681 | -137.28748 | 37160 ft | 518 kts | 50° |
| 2026-05-08 17:19 | 21.80116 | -137.22635 | 37162 ft | 518 kts | 50° |
| 2026-05-08 17:20 | 21.84549 | -137.16519 | 37168 ft | 518 kts | 50° |
| 2026-05-08 17:20 | 21.88977 | -137.10403 | 37168 ft | 517 kts | 50° |
| 2026-05-08 17:21 | 21.93359 | -137.04344 | 37169 ft | 516 kts | 50° |
| 2026-05-08 17:21 | 21.97766 | -136.98244 | 37169 ft | 516 kts | 50° |
| 2026-05-08 17:22 | 22.02174 | -136.92134 | 37175 ft | 517 kts | 51° |
| 2026-05-08 17:22 | 22.06563 | -136.86044 | 37173 ft | 512 kts | 51° |
| 2026-05-08 17:23 | 22.10926 | -136.79983 | 37174 ft | 511 kts | 51° |
| 2026-05-08 17:23 | 22.15256 | -136.73963 | 37176 ft | 511 kts | 51° |
| 2026-05-08 17:24 | 22.19613 | -136.67897 | 37177 ft | 511 kts | 51° |
| 2026-05-08 17:24 | 22.23957 | -136.61843 | 37181 ft | 510 kts | 51° |
| 2026-05-08 17:25 | 22.28266 | -136.55831 | 37179 ft | 510 kts | 51° |
| 2026-05-08 17:25 | 22.32604 | -136.49770 | 37181 ft | 510 kts | 51° |
| 2026-05-08 17:26 | 22.36944 | -136.43701 | 37181 ft | 510 kts | 51° |
| 2026-05-08 17:26 | 22.41275 | -136.37636 | 37185 ft | 509 kts | 51° |
| 2026-05-08 17:27 | 22.45577 | -136.31606 | 37187 ft | 510 kts | 51° |
| 2026-05-08 17:27 | 22.49909 | -136.25527 | 37192 ft | 511 kts | 51° |
| 2026-05-08 17:28 | 22.54238 | -136.19445 | 37190 ft | 509 kts | 51° |
| 2026-05-08 17:28 | 22.58557 | -136.13370 | 37186 ft | 509 kts | 51° |
| 2026-05-08 17:29 | 22.62847 | -136.07329 | 37196 ft | 510 kts | 51° |
| 2026-05-08 17:29 | 22.67165 | -136.01241 | 37193 ft | 509 kts | 51° |
| 2026-05-08 17:30 | 22.71474 | -135.95159 | 37193 ft | 509 kts | 51° |
| 2026-05-08 17:30 | 22.75779 | -135.89076 | 37201 ft | 509 kts | 51° |
| 2026-05-08 17:31 | 22.80080 | -135.82991 | 37191 ft | 508 kts | 51° |
| 2026-05-08 17:31 | 22.84345 | -135.76950 | 37198 ft | 508 kts | 51° |
| 2026-05-08 17:32 | 22.88638 | -135.70863 | 37203 ft | 508 kts | 51° |
| 2026-05-08 17:32 | 22.92928 | -135.64773 | 37202 ft | 508 kts | 51° |
| 2026-05-08 17:33 | 22.97216 | -135.58678 | 37206 ft | 508 kts | 51° |
| 2026-05-08 17:33 | 23.01471 | -135.52622 | 37205 ft | 508 kts | 51° |
| 2026-05-08 17:34 | 23.05750 | -135.46525 | 37209 ft | 508 kts | 51° |
| 2026-05-08 17:34 | 23.10027 | -135.40425 | 37205 ft | 508 kts | 51° |
| 2026-05-08 17:35 | 23.14302 | -135.34319 | 37208 ft | 508 kts | 51° |
| 2026-05-08 17:35 | 23.18539 | -135.28261 | 37206 ft | 507 kts | 51° |
| 2026-05-08 17:36 | 23.22804 | -135.22156 | 37209 ft | 507 kts | 51° |
| 2026-05-08 17:36 | 23.27067 | -135.16047 | 37209 ft | 507 kts | 51° |
| 2026-05-08 17:37 | 23.31329 | -135.09931 | 37214 ft | 507 kts | 51° |
| 2026-05-08 17:37 | 23.35562 | -135.03850 | 37204 ft | 507 kts | 51° |
| 2026-05-08 17:38 | 23.39820 | -134.97726 | 37210 ft | 507 kts | 51° |
| 2026-05-08 17:38 | 23.44076 | -134.91597 | 37211 ft | 507 kts | 51° |
| 2026-05-08 17:39 | 23.48329 | -134.85465 | 37214 ft | 507 kts | 51° |
| 2026-05-08 17:39 | 23.52552 | -134.79369 | 37219 ft | 507 kts | 51° |
| 2026-05-08 17:40 | 23.56792 | -134.73240 | 37213 ft | 506 kts | 52° |
| 2026-05-08 17:40 | 23.61020 | -134.67121 | 37218 ft | 506 kts | 52° |
| 2026-05-08 17:41 | 23.65250 | -134.60993 | 37216 ft | 506 kts | 52° |
| 2026-05-08 17:41 | 23.69448 | -134.54904 | 37215 ft | 505 kts | 52° |
| 2026-05-08 17:42 | 23.73668 | -134.48775 | 37216 ft | 505 kts | 52° |
| 2026-05-08 17:42 | 23.77885 | -134.42644 | 37218 ft | 505 kts | 52° |
| 2026-05-08 17:43 | 23.82098 | -134.36510 | 37225 ft | 505 kts | 52° |
| 2026-05-08 17:43 | 23.86277 | -134.30417 | 37225 ft | 504 kts | 52° |
| 2026-05-08 17:44 | 23.90482 | -134.24280 | 37228 ft | 504 kts | 52° |
| 2026-05-08 17:44 | 23.94679 | -134.18147 | 37231 ft | 504 kts | 52° |
| 2026-05-08 17:45 | 23.98883 | -134.11997 | 37230 ft | 504 kts | 52° |
| 2026-05-08 17:45 | 24.03046 | -134.05899 | 37236 ft | 504 kts | 52° |
| 2026-05-08 17:46 | 24.07234 | -133.99757 | 37233 ft | 503 kts | 52° |
| 2026-05-08 17:46 | 24.11416 | -133.93616 | 37235 ft | 503 kts | 52° |
| 2026-05-08 17:47 | 24.15593 | -133.87474 | 37235 ft | 503 kts | 52° |
| 2026-05-08 17:47 | 24.19062 | -133.82367 | 37235 ft | 503 kts | 52° |
| 2026-05-08 17:48 | 24.23906 | -133.75230 | 37230 ft | 502 kts | 52° |
| 2026-05-08 17:48 | 24.28075 | -133.69076 | 37232 ft | 502 kts | 52° |
| 2026-05-08 17:49 | 24.32234 | -133.62932 | 37240 ft | 502 kts | 52° |
| 2026-05-08 17:49 | 24.36365 | -133.56819 | 37232 ft | 502 kts | 52° |
| 2026-05-08 17:50 | 24.40520 | -133.50665 | 37239 ft | 502 kts | 52° |
| 2026-05-08 17:50 | 24.44672 | -133.44507 | 37245 ft | 502 kts | 52° |
| 2026-05-08 17:51 | 24.48820 | -133.38347 | 37258 ft | 501 kts | 52° |
| 2026-05-08 17:51 | 24.52930 | -133.32236 | 37238 ft | 500 kts | 52° |
| 2026-05-08 17:52 | 24.57059 | -133.26088 | 37236 ft | 500 kts | 52° |
| 2026-05-08 17:53 | 24.63238 | -133.16872 | 37239 ft | 499 kts | 52° |
| 2026-05-08 17:53 | 24.67349 | -133.10733 | 37254 ft | 498 kts | 52° |
| 2026-05-08 17:54 | 24.71429 | -133.04634 | 37239 ft | 498 kts | 52° |
| 2026-05-08 17:54 | 24.75533 | -132.98491 | 37247 ft | 498 kts | 52° |
| 2026-05-08 17:55 | 24.79618 | -132.92364 | 37261 ft | 497 kts | 52° |
| 2026-05-08 17:55 | 24.83704 | -132.86231 | 37243 ft | 497 kts | 52° |
| 2026-05-08 17:56 | 24.87789 | -132.80093 | 37262 ft | 497 kts | 52° |
| 2026-05-08 17:56 | 24.91843 | -132.73992 | 37247 ft | 497 kts | 52° |
| 2026-05-08 17:57 | 24.95920 | -132.67849 | 37246 ft | 497 kts | 52° |
| 2026-05-08 17:57 | 24.99994 | -132.61704 | 37248 ft | 495 kts | 52° |
| 2026-05-08 17:58 | 25.04032 | -132.55601 | 37250 ft | 490 kts | 53° |
| 2026-05-08 17:58 | 25.08013 | -132.49576 | 37251 ft | 489 kts | 53° |
| 2026-05-08 17:59 | 25.12014 | -132.43517 | 37250 ft | 489 kts | 53° |
| 2026-05-08 17:59 | 25.16017 | -132.37447 | 37251 ft | 488 kts | 53° |
| 2026-05-08 18:00 | 25.20001 | -132.31400 | 37250 ft | 486 kts | 53° |
| 2026-05-08 18:00 | 25.25937 | -132.22372 | 37252 ft | 486 kts | 53° |
| 2026-05-08 18:01 | 25.29901 | -132.16334 | 37252 ft | 485 kts | 53° |
| 2026-05-08 18:01 | 25.33863 | -132.10299 | 37252 ft | 484 kts | 52° |
| 2026-05-08 18:02 | 25.37142 | -132.05296 | 37255 ft | 484 kts | 53° |
| 2026-05-08 18:02 | 25.41732 | -131.98284 | 37255 ft | 484 kts | 53° |
| 2026-05-08 18:03 | 25.45671 | -131.92252 | 37248 ft | 483 kts | 53° |
| 2026-05-08 18:03 | 25.49603 | -131.86229 | 37253 ft | 482 kts | 53° |
| 2026-05-08 18:04 | 25.53523 | -131.80217 | 37251 ft | 481 kts | 53° |
| 2026-05-08 18:04 | 25.57413 | -131.74243 | 37256 ft | 481 kts | 53° |
| 2026-05-08 18:05 | 25.61322 | -131.68233 | 37253 ft | 480 kts | 53° |
| 2026-05-08 18:05 | 25.65226 | -131.62223 | 37251 ft | 481 kts | 53° |
| 2026-05-08 18:06 | 25.69124 | -131.56214 | 37258 ft | 480 kts | 53° |
| 2026-05-08 18:06 | 25.72994 | -131.50240 | 37255 ft | 480 kts | 53° |
| 2026-05-08 18:07 | 25.76883 | -131.44229 | 37250 ft | 479 kts | 53° |
| 2026-05-08 18:07 | 25.80768 | -131.38217 | 37253 ft | 479 kts | 53° |
| 2026-05-08 18:08 | 25.84651 | -131.32201 | 37255 ft | 479 kts | 53° |
| 2026-05-08 18:08 | 25.88500 | -131.26228 | 37254 ft | 478 kts | 53° |
| 2026-05-08 18:09 | 25.92370 | -131.20215 | 37257 ft | 478 kts | 53° |
| 2026-05-08 18:09 | 25.96236 | -131.14200 | 37257 ft | 478 kts | 53° |
| 2026-05-08 18:10 | 26.00095 | -131.08190 | 37254 ft | 477 kts | 53° |
| 2026-05-08 18:10 | 26.03947 | -131.02181 | 37254 ft | 477 kts | 53° |
| 2026-05-08 18:11 | 26.07770 | -130.96211 | 37254 ft | 477 kts | 53° |
| 2026-05-08 18:11 | 26.11616 | -130.90198 | 37255 ft | 477 kts | 53° |
| 2026-05-08 18:12 | 26.15458 | -130.84182 | 37255 ft | 477 kts | 53° |
| 2026-05-08 18:12 | 26.19296 | -130.78165 | 37251 ft | 477 kts | 53° |
| 2026-05-08 18:13 | 26.23105 | -130.72184 | 37251 ft | 476 kts | 53° |
| 2026-05-08 18:13 | 26.26938 | -130.66160 | 37262 ft | 477 kts | 53° |
| 2026-05-08 18:14 | 26.30768 | -130.60131 | 37257 ft | 476 kts | 54° |
| 2026-05-08 18:14 | 26.34595 | -130.54099 | 37249 ft | 477 kts | 53° |
| 2026-05-08 18:15 | 26.38417 | -130.48068 | 37251 ft | 477 kts | 54° |
| 2026-05-08 18:15 | 26.42214 | -130.42067 | 37260 ft | 476 kts | 54° |
| 2026-05-08 18:16 | 26.46029 | -130.36030 | 37251 ft | 476 kts | 54° |
| 2026-05-08 18:16 | 26.49843 | -130.29988 | 37257 ft | 476 kts | 54° |
| 2026-05-08 18:17 | 26.53631 | -130.23978 | 37258 ft | 476 kts | 54° |
| 2026-05-08 18:17 | 26.57440 | -130.17927 | 37257 ft | 476 kts | 54° |
| 2026-05-08 18:18 | 26.61245 | -130.11873 | 37257 ft | 476 kts | 54° |
| 2026-05-08 18:18 | 26.65048 | -130.05816 | 37257 ft | 476 kts | 54° |
| 2026-05-08 18:19 | 26.68843 | -129.99762 | 37260 ft | 476 kts | 54° |
| 2026-05-08 18:19 | 26.72613 | -129.93742 | 37260 ft | 475 kts | 54° |
| 2026-05-08 18:20 | 26.76403 | -129.87679 | 37259 ft | 475 kts | 54° |
| 2026-05-08 18:20 | 26.80192 | -129.81612 | 37259 ft | 475 kts | 54° |
| 2026-05-08 18:21 | 26.83977 | -129.75541 | 37260 ft | 475 kts | 54° |
| 2026-05-08 18:21 | 26.87732 | -129.69511 | 37260 ft | 475 kts | 54° |
| 2026-05-08 18:22 | 26.91509 | -129.63438 | 37260 ft | 475 kts | 54° |
| 2026-05-08 18:22 | 26.95279 | -129.57368 | 37264 ft | 475 kts | 54° |
| 2026-05-08 18:23 | 26.99052 | -129.51284 | 37260 ft | 474 kts | 54° |
| 2026-05-08 18:23 | 27.02792 | -129.45247 | 37260 ft | 474 kts | 54° |
| 2026-05-08 18:24 | 27.06549 | -129.39173 | 37262 ft | 474 kts | 54° |
| 2026-05-08 18:24 | 27.10308 | -129.33087 | 37264 ft | 474 kts | 54° |
| 2026-05-08 18:25 | 27.14062 | -129.27001 | 37260 ft | 474 kts | 54° |
| 2026-05-08 18:25 | 27.17788 | -129.20952 | 37260 ft | 474 kts | 54° |
| 2026-05-08 18:26 | 27.21536 | -129.14859 | 37262 ft | 474 kts | 54° |
| 2026-05-08 18:26 | 27.25281 | -129.08763 | 37263 ft | 474 kts | 54° |
| 2026-05-08 18:27 | 27.28388 | -129.03698 | 37263 ft | 473 kts | 54° |
| 2026-05-08 18:27 | 27.32756 | -128.96569 | 37262 ft | 473 kts | 54° |
| 2026-05-08 18:28 | 27.36461 | -128.90513 | 37263 ft | 474 kts | 54° |
| 2026-05-08 18:28 | 27.40191 | -128.84407 | 37263 ft | 473 kts | 54° |
| 2026-05-08 18:29 | 27.43916 | -128.78301 | 37263 ft | 473 kts | 54° |
| 2026-05-08 18:29 | 27.47638 | -128.72192 | 37265 ft | 473 kts | 54° |
| 2026-05-08 18:30 | 27.51337 | -128.66113 | 37268 ft | 474 kts | 54° |
| 2026-05-08 18:30 | 27.55060 | -128.59984 | 37268 ft | 474 kts | 54° |
| 2026-05-08 18:31 | 27.58777 | -128.53857 | 37265 ft | 473 kts | 54° |
| 2026-05-08 18:31 | 27.62491 | -128.47727 | 37265 ft | 473 kts | 54° |
| 2026-05-08 18:32 | 27.66175 | -128.41639 | 37265 ft | 473 kts | 54° |
| 2026-05-08 18:32 | 27.69884 | -128.35499 | 37268 ft | 474 kts | 54° |
| 2026-05-08 18:33 | 27.73591 | -128.29354 | 37265 ft | 474 kts | 54° |
| 2026-05-08 18:33 | 27.77295 | -128.23205 | 37265 ft | 474 kts | 54° |
| 2026-05-08 18:34 | 27.80973 | -128.17092 | 37271 ft | 473 kts | 54° |
| 2026-05-08 18:34 | 27.84669 | -128.10939 | 37268 ft | 473 kts | 54° |
| 2026-05-08 18:35 | 27.88362 | -128.04783 | 37265 ft | 473 kts | 54° |
| 2026-05-08 18:35 | 27.92053 | -127.98622 | 37265 ft | 473 kts | 54° |
| 2026-05-08 18:36 | 27.95712 | -127.92504 | 37268 ft | 473 kts | 54° |
| 2026-05-08 18:36 | 27.99394 | -127.86341 | 37266 ft | 473 kts | 54° |
| 2026-05-08 18:37 | 28.03073 | -127.80172 | 37266 ft | 473 kts | 54° |
| 2026-05-08 18:37 | 28.06755 | -127.73991 | 37262 ft | 473 kts | 54° |
| 2026-05-08 18:38 | 28.10409 | -127.67846 | 37268 ft | 473 kts | 54° |
| 2026-05-08 18:38 | 28.14081 | -127.61664 | 37268 ft | 473 kts | 54° |
| 2026-05-08 18:39 | 28.17749 | -127.55479 | 37268 ft | 473 kts | 54° |
| 2026-05-08 18:39 | 28.21414 | -127.49291 | 37265 ft | 473 kts | 54° |
| 2026-05-08 18:40 | 28.25074 | -127.43101 | 37265 ft | 472 kts | 54° |
| 2026-05-08 18:40 | 28.28701 | -127.36959 | 37265 ft | 472 kts | 54° |
| 2026-05-08 18:41 | 28.32353 | -127.30765 | 37265 ft | 472 kts | 54° |
| 2026-05-08 18:41 | 28.36002 | -127.24568 | 37265 ft | 472 kts | 54° |
| 2026-05-08 18:42 | 28.39647 | -127.18368 | 37265 ft | 471 kts | 54° |
| 2026-05-08 18:42 | 28.43261 | -127.12212 | 37265 ft | 471 kts | 54° |
| 2026-05-08 18:43 | 28.46894 | -127.06014 | 37265 ft | 471 kts | 54° |
| 2026-05-08 18:43 | 28.50525 | -126.99812 | 37265 ft | 471 kts | 54° |
| 2026-05-08 18:44 | 28.54132 | -126.93641 | 37263 ft | 472 kts | 53° |
| 2026-05-08 18:44 | 28.57759 | -126.87428 | 37263 ft | 472 kts | 53° |
| 2026-05-08 18:45 | 28.61387 | -126.81203 | 37265 ft | 472 kts | 53° |
| 2026-05-08 18:45 | 28.65013 | -126.74971 | 37266 ft | 472 kts | 54° |
| 2026-05-08 18:46 | 28.68633 | -126.68741 | 37263 ft | 471 kts | 53° |
| 2026-05-08 18:46 | 28.72223 | -126.62553 | 37263 ft | 471 kts | 53° |
| 2026-05-08 18:47 | 28.75834 | -126.56322 | 37266 ft | 471 kts | 53° |
| 2026-05-08 18:47 | 28.79442 | -126.50085 | 37271 ft | 471 kts | 54° |
| 2026-05-08 18:48 | 28.83044 | -126.43849 | 37265 ft | 470 kts | 53° |
| 2026-05-08 18:48 | 28.86616 | -126.37656 | 37266 ft | 470 kts | 53° |
| 2026-05-08 18:49 | 28.90204 | -126.31427 | 37246 ft | 470 kts | 53° |
| 2026-05-08 18:49 | 28.93793 | -126.25187 | 37271 ft | 470 kts | 53° |
| 2026-05-08 18:50 | 28.97376 | -126.18946 | 37253 ft | 469 kts | 53° |
| 2026-05-08 18:50 | 29.00953 | -126.12707 | 37255 ft | 469 kts | 53° |
| 2026-05-08 18:51 | 29.04504 | -126.06504 | 37255 ft | 470 kts | 53° |
| 2026-05-08 18:51 | 29.08083 | -126.00246 | 37262 ft | 470 kts | 53° |
| 2026-05-08 18:52 | 29.11659 | -125.93979 | 37257 ft | 470 kts | 53° |
| 2026-05-08 18:52 | 29.15233 | -125.87709 | 37259 ft | 470 kts | 54° |
| 2026-05-08 18:53 | 29.18777 | -125.81481 | 37262 ft | 470 kts | 54° |
| 2026-05-08 18:53 | 29.22345 | -125.75201 | 37268 ft | 471 kts | 54° |
| 2026-05-08 18:54 | 29.25911 | -125.68915 | 37257 ft | 470 kts | 53° |
| 2026-05-08 18:54 | 29.29464 | -125.62644 | 37252 ft | 470 kts | 54° |
| 2026-05-08 18:55 | 29.34768 | -125.53263 | 37248 ft | 470 kts | 54° |
| 2026-05-08 18:56 | 29.38318 | -125.46973 | 37255 ft | 469 kts | 53° |
| 2026-05-08 18:56 | 29.41858 | -125.40691 | 37251 ft | 469 kts | 53° |
| 2026-05-08 18:57 | 29.45393 | -125.34407 | 37251 ft | 469 kts | 54° |
| 2026-05-08 18:57 | 29.48902 | -125.28162 | 37250 ft | 469 kts | 54° |
| 2026-05-08 18:58 | 29.52431 | -125.21870 | 37250 ft | 468 kts | 53° |
| 2026-05-08 18:58 | 29.55950 | -125.15585 | 37252 ft | 468 kts | 53° |
| 2026-05-08 18:59 | 29.59470 | -125.09291 | 37248 ft | 468 kts | 54° |
| 2026-05-08 18:59 | 29.62990 | -125.02987 | 37248 ft | 468 kts | 54° |
| 2026-05-08 19:00 | 29.64722 | -124.99881 | 37248 ft | 469 kts | 54° |